<?xml version="1.0" encoding="UTF-8" standalone="no" ?>
<gpx xmlns="http://www.topografix.com/GPX/1/1" xmlns:xsi="http://www.w3.org/2001/XMLSchema-instance" xsi:schemaLocation="http://www.topografix.com/GPX/1/1 http://www.topografix.com/GPX/1/1/gpx.xsd" version="1.1" creator="VisuGPX - https://www.visugpx.com">
  <metadata>
    <name>83 - L - Vins sur Caramy</name>
    <desc><![CDATA[83 - L - Vins sur Caramy - grotte des résistants]]></desc>
  </metadata>
  <trk>
    <name><![CDATA[Vins sur Caramy grotte des résistants 2025-03-17-01]]></name>
    <trkseg>
      <trkpt lat="43.43589" lon="6.1517">
        <ele>267</ele>
        <time>2025-03-17T08:21:01Z</time>
      </trkpt>
      <trkpt lat="43.43589" lon="6.15169">
        <ele>238</ele>
        <time>2025-03-17T08:21:04Z</time>
      </trkpt>
      <trkpt lat="43.43584" lon="6.15158">
        <ele>176.3</ele>
        <time>2025-03-17T08:22:30Z</time>
      </trkpt>
      <trkpt lat="43.43579" lon="6.15148">
        <ele>176.8</ele>
        <time>2025-03-17T08:23:29Z</time>
      </trkpt>
      <trkpt lat="43.4357" lon="6.15143">
        <ele>176.9</ele>
        <time>2025-03-17T08:23:39Z</time>
      </trkpt>
      <trkpt lat="43.43562" lon="6.15149">
        <ele>176.5</ele>
        <time>2025-03-17T08:23:58Z</time>
      </trkpt>
      <trkpt lat="43.43557" lon="6.15161">
        <ele>176.1</ele>
        <time>2025-03-17T08:24:09Z</time>
      </trkpt>
      <trkpt lat="43.43554" lon="6.15174">
        <ele>175.6</ele>
        <time>2025-03-17T08:24:20Z</time>
      </trkpt>
      <trkpt lat="43.43553" lon="6.15187">
        <ele>175.4</ele>
        <time>2025-03-17T08:24:29Z</time>
      </trkpt>
      <trkpt lat="43.43551" lon="6.15199">
        <ele>175.5</ele>
        <time>2025-03-17T08:24:38Z</time>
      </trkpt>
      <trkpt lat="43.43551" lon="6.15212">
        <ele>175.4</ele>
        <time>2025-03-17T08:24:47Z</time>
      </trkpt>
      <trkpt lat="43.43544" lon="6.15222">
        <ele>175.2</ele>
        <time>2025-03-17T08:25:00Z</time>
      </trkpt>
      <trkpt lat="43.43537" lon="6.1523">
        <ele>174.6</ele>
        <time>2025-03-17T08:25:08Z</time>
      </trkpt>
      <trkpt lat="43.43532" lon="6.15242">
        <ele>175.3</ele>
        <time>2025-03-17T08:25:17Z</time>
      </trkpt>
      <trkpt lat="43.43523" lon="6.15243">
        <ele>174.8</ele>
        <time>2025-03-17T08:26:14Z</time>
      </trkpt>
      <trkpt lat="43.43514" lon="6.15238">
        <ele>174.5</ele>
        <time>2025-03-17T08:26:26Z</time>
      </trkpt>
      <trkpt lat="43.43505" lon="6.15233">
        <ele>174.3</ele>
        <time>2025-03-17T08:26:36Z</time>
      </trkpt>
      <trkpt lat="43.43497" lon="6.15228">
        <ele>174.2</ele>
        <time>2025-03-17T08:26:46Z</time>
      </trkpt>
      <trkpt lat="43.43489" lon="6.15224">
        <ele>174.3</ele>
        <time>2025-03-17T08:26:55Z</time>
      </trkpt>
      <trkpt lat="43.43479" lon="6.1522">
        <ele>174.5</ele>
        <time>2025-03-17T08:27:06Z</time>
      </trkpt>
      <trkpt lat="43.4347" lon="6.15219">
        <ele>174.5</ele>
        <time>2025-03-17T08:27:16Z</time>
      </trkpt>
      <trkpt lat="43.4346" lon="6.15218">
        <ele>174.9</ele>
        <time>2025-03-17T08:27:25Z</time>
      </trkpt>
      <trkpt lat="43.43451" lon="6.15218">
        <ele>175.2</ele>
        <time>2025-03-17T08:28:15Z</time>
      </trkpt>
      <trkpt lat="43.43443" lon="6.15212">
        <ele>174.9</ele>
        <time>2025-03-17T08:28:25Z</time>
      </trkpt>
      <trkpt lat="43.43435" lon="6.15206">
        <ele>174.9</ele>
        <time>2025-03-17T08:28:35Z</time>
      </trkpt>
      <trkpt lat="43.43428" lon="6.15197">
        <ele>175</ele>
        <time>2025-03-17T08:28:49Z</time>
      </trkpt>
      <trkpt lat="43.4342" lon="6.15189">
        <ele>174.6</ele>
        <time>2025-03-17T08:28:58Z</time>
      </trkpt>
      <trkpt lat="43.43414" lon="6.15177">
        <ele>175</ele>
        <time>2025-03-17T08:29:08Z</time>
      </trkpt>
      <trkpt lat="43.43407" lon="6.15167">
        <ele>173.9</ele>
        <time>2025-03-17T08:29:18Z</time>
      </trkpt>
      <trkpt lat="43.43401" lon="6.15157">
        <ele>173.4</ele>
        <time>2025-03-17T08:29:27Z</time>
      </trkpt>
      <trkpt lat="43.43396" lon="6.15147">
        <ele>174.3</ele>
        <time>2025-03-17T08:29:36Z</time>
      </trkpt>
      <trkpt lat="43.4339" lon="6.15136">
        <ele>173.6</ele>
        <time>2025-03-17T08:29:48Z</time>
      </trkpt>
      <trkpt lat="43.43383" lon="6.15126">
        <ele>174.1</ele>
        <time>2025-03-17T08:30:00Z</time>
      </trkpt>
      <trkpt lat="43.43378" lon="6.15116">
        <ele>174.1</ele>
        <time>2025-03-17T08:30:09Z</time>
      </trkpt>
      <trkpt lat="43.43371" lon="6.15106">
        <ele>174</ele>
        <time>2025-03-17T08:30:19Z</time>
      </trkpt>
      <trkpt lat="43.43367" lon="6.15094">
        <ele>174.8</ele>
        <time>2025-03-17T08:30:39Z</time>
      </trkpt>
      <trkpt lat="43.43366" lon="6.15081">
        <ele>174.8</ele>
        <time>2025-03-17T08:30:47Z</time>
      </trkpt>
      <trkpt lat="43.43364" lon="6.15068">
        <ele>174.8</ele>
        <time>2025-03-17T08:30:58Z</time>
      </trkpt>
      <trkpt lat="43.43363" lon="6.15056">
        <ele>174.6</ele>
        <time>2025-03-17T08:31:08Z</time>
      </trkpt>
      <trkpt lat="43.43359" lon="6.15043">
        <ele>175.1</ele>
        <time>2025-03-17T08:31:16Z</time>
      </trkpt>
      <trkpt lat="43.43354" lon="6.15033">
        <ele>175</ele>
        <time>2025-03-17T08:31:24Z</time>
      </trkpt>
      <trkpt lat="43.43348" lon="6.15023">
        <ele>174.8</ele>
        <time>2025-03-17T08:31:34Z</time>
      </trkpt>
      <trkpt lat="43.4334" lon="6.15015">
        <ele>174.9</ele>
        <time>2025-03-17T08:31:43Z</time>
      </trkpt>
      <trkpt lat="43.43337" lon="6.15003">
        <ele>174.7</ele>
        <time>2025-03-17T08:31:52Z</time>
      </trkpt>
      <trkpt lat="43.43333" lon="6.14991">
        <ele>174.3</ele>
        <time>2025-03-17T08:32:10Z</time>
      </trkpt>
      <trkpt lat="43.43329" lon="6.14979">
        <ele>173.3</ele>
        <time>2025-03-17T08:32:21Z</time>
      </trkpt>
      <trkpt lat="43.43322" lon="6.14969">
        <ele>172.9</ele>
        <time>2025-03-17T08:32:31Z</time>
      </trkpt>
      <trkpt lat="43.43315" lon="6.1496">
        <ele>173.2</ele>
        <time>2025-03-17T08:32:41Z</time>
      </trkpt>
      <trkpt lat="43.43308" lon="6.14953">
        <ele>174</ele>
        <time>2025-03-17T08:32:49Z</time>
      </trkpt>
      <trkpt lat="43.43306" lon="6.1494">
        <ele>174.4</ele>
        <time>2025-03-17T08:33:00Z</time>
      </trkpt>
      <trkpt lat="43.43305" lon="6.14926">
        <ele>174.2</ele>
        <time>2025-03-17T08:33:09Z</time>
      </trkpt>
      <trkpt lat="43.43299" lon="6.14916">
        <ele>174.2</ele>
        <time>2025-03-17T08:33:17Z</time>
      </trkpt>
      <trkpt lat="43.43293" lon="6.14905">
        <ele>173.8</ele>
        <time>2025-03-17T08:33:26Z</time>
      </trkpt>
      <trkpt lat="43.43289" lon="6.14893">
        <ele>174.3</ele>
        <time>2025-03-17T08:33:35Z</time>
      </trkpt>
      <trkpt lat="43.43287" lon="6.14881">
        <ele>173.9</ele>
        <time>2025-03-17T08:33:50Z</time>
      </trkpt>
      <trkpt lat="43.43281" lon="6.14872">
        <ele>173.6</ele>
        <time>2025-03-17T08:34:01Z</time>
      </trkpt>
      <trkpt lat="43.43278" lon="6.1486">
        <ele>173.7</ele>
        <time>2025-03-17T08:34:12Z</time>
      </trkpt>
      <trkpt lat="43.43272" lon="6.1485">
        <ele>175.2</ele>
        <time>2025-03-17T08:34:33Z</time>
      </trkpt>
      <trkpt lat="43.43263" lon="6.14847">
        <ele>176.7</ele>
        <time>2025-03-17T08:35:28Z</time>
      </trkpt>
      <trkpt lat="43.43256" lon="6.14838">
        <ele>177</ele>
        <time>2025-03-17T08:35:55Z</time>
      </trkpt>
      <trkpt lat="43.43254" lon="6.14826">
        <ele>176.5</ele>
        <time>2025-03-17T08:36:07Z</time>
      </trkpt>
      <trkpt lat="43.43248" lon="6.14814">
        <ele>177.3</ele>
        <time>2025-03-17T08:36:17Z</time>
      </trkpt>
      <trkpt lat="43.43245" lon="6.14801">
        <ele>177.1</ele>
        <time>2025-03-17T08:36:26Z</time>
      </trkpt>
      <trkpt lat="43.43243" lon="6.14788">
        <ele>177.7</ele>
        <time>2025-03-17T08:36:36Z</time>
      </trkpt>
      <trkpt lat="43.43243" lon="6.14775">
        <ele>177.9</ele>
        <time>2025-03-17T08:36:45Z</time>
      </trkpt>
      <trkpt lat="43.43243" lon="6.14762">
        <ele>176.5</ele>
        <time>2025-03-17T08:36:53Z</time>
      </trkpt>
      <trkpt lat="43.43243" lon="6.14749">
        <ele>176.8</ele>
        <time>2025-03-17T08:37:00Z</time>
      </trkpt>
      <trkpt lat="43.43241" lon="6.14737">
        <ele>177.2</ele>
        <time>2025-03-17T08:37:08Z</time>
      </trkpt>
      <trkpt lat="43.43237" lon="6.14725">
        <ele>177.1</ele>
        <time>2025-03-17T08:37:17Z</time>
      </trkpt>
      <trkpt lat="43.43232" lon="6.14713">
        <ele>178</ele>
        <time>2025-03-17T08:37:27Z</time>
      </trkpt>
      <trkpt lat="43.4323" lon="6.14699">
        <ele>178</ele>
        <time>2025-03-17T08:37:36Z</time>
      </trkpt>
      <trkpt lat="43.43227" lon="6.14687">
        <ele>179.2</ele>
        <time>2025-03-17T08:37:44Z</time>
      </trkpt>
      <trkpt lat="43.43225" lon="6.14673">
        <ele>179.1</ele>
        <time>2025-03-17T08:37:53Z</time>
      </trkpt>
      <trkpt lat="43.43223" lon="6.14659">
        <ele>179.2</ele>
        <time>2025-03-17T08:38:03Z</time>
      </trkpt>
      <trkpt lat="43.43221" lon="6.14647">
        <ele>179.4</ele>
        <time>2025-03-17T08:38:11Z</time>
      </trkpt>
      <trkpt lat="43.43219" lon="6.14633">
        <ele>179.4</ele>
        <time>2025-03-17T08:38:22Z</time>
      </trkpt>
      <trkpt lat="43.43216" lon="6.14621">
        <ele>178.3</ele>
        <time>2025-03-17T08:38:29Z</time>
      </trkpt>
      <trkpt lat="43.43214" lon="6.14608">
        <ele>178.2</ele>
        <time>2025-03-17T08:38:37Z</time>
      </trkpt>
      <trkpt lat="43.4321" lon="6.14596">
        <ele>177.9</ele>
        <time>2025-03-17T08:38:47Z</time>
      </trkpt>
      <trkpt lat="43.43207" lon="6.14584">
        <ele>177.3</ele>
        <time>2025-03-17T08:38:56Z</time>
      </trkpt>
      <trkpt lat="43.43203" lon="6.14573">
        <ele>177.9</ele>
        <time>2025-03-17T08:39:06Z</time>
      </trkpt>
      <trkpt lat="43.43199" lon="6.14561">
        <ele>178.2</ele>
        <time>2025-03-17T08:39:15Z</time>
      </trkpt>
      <trkpt lat="43.43196" lon="6.14549">
        <ele>177.5</ele>
        <time>2025-03-17T08:39:24Z</time>
      </trkpt>
      <trkpt lat="43.4319" lon="6.14539">
        <ele>177.5</ele>
        <time>2025-03-17T08:39:33Z</time>
      </trkpt>
      <trkpt lat="43.43185" lon="6.14527">
        <ele>177.6</ele>
        <time>2025-03-17T08:39:41Z</time>
      </trkpt>
      <trkpt lat="43.43181" lon="6.14516">
        <ele>177.7</ele>
        <time>2025-03-17T08:39:50Z</time>
      </trkpt>
      <trkpt lat="43.43175" lon="6.14506">
        <ele>178.3</ele>
        <time>2025-03-17T08:39:59Z</time>
      </trkpt>
      <trkpt lat="43.43169" lon="6.14497">
        <ele>178.6</ele>
        <time>2025-03-17T08:40:12Z</time>
      </trkpt>
      <trkpt lat="43.43162" lon="6.14488">
        <ele>178.5</ele>
        <time>2025-03-17T08:40:29Z</time>
      </trkpt>
      <trkpt lat="43.43165" lon="6.145">
        <ele>179.4</ele>
        <time>2025-03-17T08:40:49Z</time>
      </trkpt>
      <trkpt lat="43.43173" lon="6.14508">
        <ele>180.8</ele>
        <time>2025-03-17T08:41:08Z</time>
      </trkpt>
      <trkpt lat="43.43175" lon="6.1452">
        <ele>181.1</ele>
        <time>2025-03-17T08:41:20Z</time>
      </trkpt>
      <trkpt lat="43.43175" lon="6.14533">
        <ele>182.1</ele>
        <time>2025-03-17T08:41:30Z</time>
      </trkpt>
      <trkpt lat="43.43175" lon="6.14546">
        <ele>183.8</ele>
        <time>2025-03-17T08:41:43Z</time>
      </trkpt>
      <trkpt lat="43.43179" lon="6.14558">
        <ele>184.2</ele>
        <time>2025-03-17T08:42:00Z</time>
      </trkpt>
      <trkpt lat="43.43181" lon="6.14571">
        <ele>186.9</ele>
        <time>2025-03-17T08:42:11Z</time>
      </trkpt>
      <trkpt lat="43.43184" lon="6.14583">
        <ele>188.3</ele>
        <time>2025-03-17T08:42:23Z</time>
      </trkpt>
      <trkpt lat="43.43185" lon="6.14595">
        <ele>189.4</ele>
        <time>2025-03-17T08:42:34Z</time>
      </trkpt>
      <trkpt lat="43.43188" lon="6.14608">
        <ele>191.2</ele>
        <time>2025-03-17T08:42:46Z</time>
      </trkpt>
      <trkpt lat="43.4319" lon="6.1462">
        <ele>192.1</ele>
        <time>2025-03-17T08:42:58Z</time>
      </trkpt>
      <trkpt lat="43.43189" lon="6.14633">
        <ele>192.9</ele>
        <time>2025-03-17T08:43:09Z</time>
      </trkpt>
      <trkpt lat="43.43192" lon="6.14645">
        <ele>193.6</ele>
        <time>2025-03-17T08:43:20Z</time>
      </trkpt>
      <trkpt lat="43.43192" lon="6.14658">
        <ele>194.7</ele>
        <time>2025-03-17T08:43:30Z</time>
      </trkpt>
      <trkpt lat="43.43192" lon="6.1467">
        <ele>195.2</ele>
        <time>2025-03-17T08:43:40Z</time>
      </trkpt>
      <trkpt lat="43.43192" lon="6.14683">
        <ele>196</ele>
        <time>2025-03-17T08:43:53Z</time>
      </trkpt>
      <trkpt lat="43.4319" lon="6.14696">
        <ele>196.5</ele>
        <time>2025-03-17T08:44:03Z</time>
      </trkpt>
      <trkpt lat="43.43189" lon="6.14708">
        <ele>197.9</ele>
        <time>2025-03-17T08:44:14Z</time>
      </trkpt>
      <trkpt lat="43.4319" lon="6.14721">
        <ele>199.3</ele>
        <time>2025-03-17T08:44:28Z</time>
      </trkpt>
      <trkpt lat="43.43192" lon="6.14734">
        <ele>199.9</ele>
        <time>2025-03-17T08:44:40Z</time>
      </trkpt>
      <trkpt lat="43.43192" lon="6.14747">
        <ele>199.6</ele>
        <time>2025-03-17T08:44:50Z</time>
      </trkpt>
      <trkpt lat="43.43193" lon="6.14761">
        <ele>200.4</ele>
        <time>2025-03-17T08:45:01Z</time>
      </trkpt>
      <trkpt lat="43.43195" lon="6.14773">
        <ele>200.2</ele>
        <time>2025-03-17T08:45:11Z</time>
      </trkpt>
      <trkpt lat="43.43199" lon="6.14785">
        <ele>200.4</ele>
        <time>2025-03-17T08:45:21Z</time>
      </trkpt>
      <trkpt lat="43.432" lon="6.14798">
        <ele>201.1</ele>
        <time>2025-03-17T08:45:31Z</time>
      </trkpt>
      <trkpt lat="43.432" lon="6.14812">
        <ele>202.1</ele>
        <time>2025-03-17T08:45:43Z</time>
      </trkpt>
      <trkpt lat="43.432" lon="6.14825">
        <ele>203</ele>
        <time>2025-03-17T08:45:55Z</time>
      </trkpt>
      <trkpt lat="43.432" lon="6.14838">
        <ele>204.5</ele>
        <time>2025-03-17T08:46:07Z</time>
      </trkpt>
      <trkpt lat="43.43197" lon="6.14851">
        <ele>205</ele>
        <time>2025-03-17T08:46:19Z</time>
      </trkpt>
      <trkpt lat="43.43195" lon="6.14863">
        <ele>205.5</ele>
        <time>2025-03-17T08:46:30Z</time>
      </trkpt>
      <trkpt lat="43.4319" lon="6.14875">
        <ele>205.9</ele>
        <time>2025-03-17T08:46:41Z</time>
      </trkpt>
      <trkpt lat="43.43184" lon="6.14885">
        <ele>207</ele>
        <time>2025-03-17T08:46:53Z</time>
      </trkpt>
      <trkpt lat="43.43178" lon="6.14895">
        <ele>208.9</ele>
        <time>2025-03-17T08:47:06Z</time>
      </trkpt>
      <trkpt lat="43.43171" lon="6.14904">
        <ele>210.3</ele>
        <time>2025-03-17T08:47:19Z</time>
      </trkpt>
      <trkpt lat="43.43163" lon="6.14912">
        <ele>211.5</ele>
        <time>2025-03-17T08:47:31Z</time>
      </trkpt>
      <trkpt lat="43.43155" lon="6.14917">
        <ele>213.3</ele>
        <time>2025-03-17T08:47:45Z</time>
      </trkpt>
      <trkpt lat="43.43147" lon="6.14925">
        <ele>214.5</ele>
        <time>2025-03-17T08:47:58Z</time>
      </trkpt>
      <trkpt lat="43.4314" lon="6.14933">
        <ele>215.7</ele>
        <time>2025-03-17T08:48:10Z</time>
      </trkpt>
      <trkpt lat="43.43132" lon="6.14941">
        <ele>215.8</ele>
        <time>2025-03-17T08:48:24Z</time>
      </trkpt>
      <trkpt lat="43.43128" lon="6.14952">
        <ele>215.7</ele>
        <time>2025-03-17T08:48:36Z</time>
      </trkpt>
      <trkpt lat="43.43124" lon="6.14963">
        <ele>215.7</ele>
        <time>2025-03-17T08:48:47Z</time>
      </trkpt>
      <trkpt lat="43.43122" lon="6.14976">
        <ele>216.9</ele>
        <time>2025-03-17T08:49:02Z</time>
      </trkpt>
      <trkpt lat="43.43123" lon="6.14989">
        <ele>218.2</ele>
        <time>2025-03-17T08:49:16Z</time>
      </trkpt>
      <trkpt lat="43.43131" lon="6.14994">
        <ele>220.7</ele>
        <time>2025-03-17T08:49:35Z</time>
      </trkpt>
      <trkpt lat="43.4314" lon="6.1499">
        <ele>221.9</ele>
        <time>2025-03-17T08:49:52Z</time>
      </trkpt>
      <trkpt lat="43.4315" lon="6.14991">
        <ele>223.5</ele>
        <time>2025-03-17T08:50:10Z</time>
      </trkpt>
      <trkpt lat="43.43154" lon="6.15003">
        <ele>225</ele>
        <time>2025-03-17T08:50:23Z</time>
      </trkpt>
      <trkpt lat="43.43151" lon="6.15015">
        <ele>226.8</ele>
        <time>2025-03-17T08:50:38Z</time>
      </trkpt>
      <trkpt lat="43.43145" lon="6.15025">
        <ele>229.1</ele>
        <time>2025-03-17T08:50:52Z</time>
      </trkpt>
      <trkpt lat="43.43144" lon="6.15037">
        <ele>231</ele>
        <time>2025-03-17T08:53:36Z</time>
      </trkpt>
      <trkpt lat="43.43138" lon="6.15046">
        <ele>231</ele>
        <time>2025-03-17T08:55:11Z</time>
      </trkpt>
      <trkpt lat="43.43143" lon="6.15036">
        <ele>230.6</ele>
        <time>2025-03-17T08:55:51Z</time>
      </trkpt>
      <trkpt lat="43.43142" lon="6.15048">
        <ele>231.7</ele>
        <time>2025-03-17T08:57:34Z</time>
      </trkpt>
      <trkpt lat="43.43141" lon="6.15061">
        <ele>233.1</ele>
        <time>2025-03-17T08:57:49Z</time>
      </trkpt>
      <trkpt lat="43.43137" lon="6.15073">
        <ele>234.9</ele>
        <time>2025-03-17T08:58:07Z</time>
      </trkpt>
      <trkpt lat="43.43133" lon="6.15084">
        <ele>236.2</ele>
        <time>2025-03-17T08:58:23Z</time>
      </trkpt>
      <trkpt lat="43.43131" lon="6.15097">
        <ele>238.5</ele>
        <time>2025-03-17T08:58:41Z</time>
      </trkpt>
      <trkpt lat="43.43131" lon="6.1511">
        <ele>239.9</ele>
        <time>2025-03-17T08:58:57Z</time>
      </trkpt>
      <trkpt lat="43.4313" lon="6.15123">
        <ele>240.4</ele>
        <time>2025-03-17T08:59:11Z</time>
      </trkpt>
      <trkpt lat="43.43128" lon="6.15136">
        <ele>241.2</ele>
        <time>2025-03-17T08:59:24Z</time>
      </trkpt>
      <trkpt lat="43.43126" lon="6.15149">
        <ele>241.8</ele>
        <time>2025-03-17T08:59:38Z</time>
      </trkpt>
      <trkpt lat="43.43126" lon="6.15162">
        <ele>242.2</ele>
        <time>2025-03-17T08:59:50Z</time>
      </trkpt>
      <trkpt lat="43.43126" lon="6.15175">
        <ele>242.4</ele>
        <time>2025-03-17T09:00:07Z</time>
      </trkpt>
      <trkpt lat="43.43127" lon="6.15187">
        <ele>242.9</ele>
        <time>2025-03-17T09:00:18Z</time>
      </trkpt>
      <trkpt lat="43.43127" lon="6.152">
        <ele>243.9</ele>
        <time>2025-03-17T09:00:31Z</time>
      </trkpt>
      <trkpt lat="43.43125" lon="6.15212">
        <ele>244.9</ele>
        <time>2025-03-17T09:00:44Z</time>
      </trkpt>
      <trkpt lat="43.43121" lon="6.15225">
        <ele>246.8</ele>
        <time>2025-03-17T09:00:58Z</time>
      </trkpt>
      <trkpt lat="43.43117" lon="6.15236">
        <ele>248.3</ele>
        <time>2025-03-17T09:01:13Z</time>
      </trkpt>
      <trkpt lat="43.43113" lon="6.15248">
        <ele>250</ele>
        <time>2025-03-17T09:01:46Z</time>
      </trkpt>
      <trkpt lat="43.43107" lon="6.15258">
        <ele>251.5</ele>
        <time>2025-03-17T09:03:19Z</time>
      </trkpt>
      <trkpt lat="43.43102" lon="6.15269">
        <ele>253.1</ele>
        <time>2025-03-17T09:03:35Z</time>
      </trkpt>
      <trkpt lat="43.43097" lon="6.15279">
        <ele>255.1</ele>
        <time>2025-03-17T09:03:59Z</time>
      </trkpt>
      <trkpt lat="43.43096" lon="6.15292">
        <ele>256.7</ele>
        <time>2025-03-17T09:04:17Z</time>
      </trkpt>
      <trkpt lat="43.43096" lon="6.15305">
        <ele>258.8</ele>
        <time>2025-03-17T09:04:35Z</time>
      </trkpt>
      <trkpt lat="43.43093" lon="6.15318">
        <ele>261</ele>
        <time>2025-03-17T09:04:55Z</time>
      </trkpt>
      <trkpt lat="43.43089" lon="6.15329">
        <ele>262.9</ele>
        <time>2025-03-17T09:05:12Z</time>
      </trkpt>
      <trkpt lat="43.43084" lon="6.1534">
        <ele>264.6</ele>
        <time>2025-03-17T09:05:34Z</time>
      </trkpt>
      <trkpt lat="43.43078" lon="6.1535">
        <ele>266.3</ele>
        <time>2025-03-17T09:05:51Z</time>
      </trkpt>
      <trkpt lat="43.43073" lon="6.15361">
        <ele>267.7</ele>
        <time>2025-03-17T09:06:07Z</time>
      </trkpt>
      <trkpt lat="43.43066" lon="6.1537">
        <ele>269.2</ele>
        <time>2025-03-17T09:06:29Z</time>
      </trkpt>
      <trkpt lat="43.43059" lon="6.15378">
        <ele>271.1</ele>
        <time>2025-03-17T09:06:45Z</time>
      </trkpt>
      <trkpt lat="43.43051" lon="6.15385">
        <ele>272.6</ele>
        <time>2025-03-17T09:07:01Z</time>
      </trkpt>
      <trkpt lat="43.43042" lon="6.15386">
        <ele>273.5</ele>
        <time>2025-03-17T09:07:18Z</time>
      </trkpt>
      <trkpt lat="43.43033" lon="6.15387">
        <ele>274.4</ele>
        <time>2025-03-17T09:09:56Z</time>
      </trkpt>
      <trkpt lat="43.43024" lon="6.15386">
        <ele>275</ele>
        <time>2025-03-17T09:10:09Z</time>
      </trkpt>
      <trkpt lat="43.43015" lon="6.15381">
        <ele>275.9</ele>
        <time>2025-03-17T09:10:23Z</time>
      </trkpt>
      <trkpt lat="43.43005" lon="6.15382">
        <ele>277.3</ele>
        <time>2025-03-17T09:10:37Z</time>
      </trkpt>
      <trkpt lat="43.42999" lon="6.15391">
        <ele>278.5</ele>
        <time>2025-03-17T09:10:51Z</time>
      </trkpt>
      <trkpt lat="43.43" lon="6.15403">
        <ele>280.4</ele>
        <time>2025-03-17T09:11:17Z</time>
      </trkpt>
      <trkpt lat="43.43002" lon="6.15416">
        <ele>281.3</ele>
        <time>2025-03-17T09:11:30Z</time>
      </trkpt>
      <trkpt lat="43.43003" lon="6.15429">
        <ele>282.7</ele>
        <time>2025-03-17T09:11:44Z</time>
      </trkpt>
      <trkpt lat="43.43003" lon="6.15442">
        <ele>283.6</ele>
        <time>2025-03-17T09:11:57Z</time>
      </trkpt>
      <trkpt lat="43.43004" lon="6.15455">
        <ele>284.9</ele>
        <time>2025-03-17T09:12:10Z</time>
      </trkpt>
      <trkpt lat="43.43006" lon="6.15468">
        <ele>286.4</ele>
        <time>2025-03-17T09:12:26Z</time>
      </trkpt>
      <trkpt lat="43.43006" lon="6.15481">
        <ele>288.3</ele>
        <time>2025-03-17T09:12:41Z</time>
      </trkpt>
      <trkpt lat="43.43007" lon="6.15494">
        <ele>290</ele>
        <time>2025-03-17T09:12:57Z</time>
      </trkpt>
      <trkpt lat="43.43006" lon="6.15506">
        <ele>291.4</ele>
        <time>2025-03-17T09:13:11Z</time>
      </trkpt>
      <trkpt lat="43.43006" lon="6.15519">
        <ele>292.3</ele>
        <time>2025-03-17T09:13:24Z</time>
      </trkpt>
      <trkpt lat="43.43008" lon="6.15532">
        <ele>294.1</ele>
        <time>2025-03-17T09:13:38Z</time>
      </trkpt>
      <trkpt lat="43.43009" lon="6.15545">
        <ele>294.4</ele>
        <time>2025-03-17T09:13:50Z</time>
      </trkpt>
      <trkpt lat="43.4301" lon="6.15558">
        <ele>295.8</ele>
        <time>2025-03-17T09:14:04Z</time>
      </trkpt>
      <trkpt lat="43.43011" lon="6.15571">
        <ele>297.6</ele>
        <time>2025-03-17T09:14:18Z</time>
      </trkpt>
      <trkpt lat="43.43012" lon="6.15584">
        <ele>299.2</ele>
        <time>2025-03-17T09:14:35Z</time>
      </trkpt>
      <trkpt lat="43.43011" lon="6.15597">
        <ele>301.1</ele>
        <time>2025-03-17T09:14:48Z</time>
      </trkpt>
      <trkpt lat="43.43013" lon="6.1561">
        <ele>302.6</ele>
        <time>2025-03-17T09:15:04Z</time>
      </trkpt>
      <trkpt lat="43.4301" lon="6.15622">
        <ele>303</ele>
        <time>2025-03-17T09:16:57Z</time>
      </trkpt>
      <trkpt lat="43.4301" lon="6.15635">
        <ele>303.8</ele>
        <time>2025-03-17T09:17:09Z</time>
      </trkpt>
      <trkpt lat="43.43009" lon="6.15647">
        <ele>304.2</ele>
        <time>2025-03-17T09:17:21Z</time>
      </trkpt>
      <trkpt lat="43.43009" lon="6.1566">
        <ele>304.9</ele>
        <time>2025-03-17T09:17:34Z</time>
      </trkpt>
      <trkpt lat="43.43007" lon="6.15673">
        <ele>305.4</ele>
        <time>2025-03-17T09:17:47Z</time>
      </trkpt>
      <trkpt lat="43.43005" lon="6.15686">
        <ele>305.8</ele>
        <time>2025-03-17T09:18:00Z</time>
      </trkpt>
      <trkpt lat="43.43001" lon="6.15697">
        <ele>305.9</ele>
        <time>2025-03-17T09:18:11Z</time>
      </trkpt>
      <trkpt lat="43.42994" lon="6.15706">
        <ele>306.4</ele>
        <time>2025-03-17T09:18:23Z</time>
      </trkpt>
      <trkpt lat="43.42987" lon="6.15713">
        <ele>307.4</ele>
        <time>2025-03-17T09:18:36Z</time>
      </trkpt>
      <trkpt lat="43.4298" lon="6.15721">
        <ele>308</ele>
        <time>2025-03-17T09:18:47Z</time>
      </trkpt>
      <trkpt lat="43.42973" lon="6.15729">
        <ele>308.8</ele>
        <time>2025-03-17T09:18:59Z</time>
      </trkpt>
      <trkpt lat="43.42965" lon="6.15737">
        <ele>309.6</ele>
        <time>2025-03-17T09:19:09Z</time>
      </trkpt>
      <trkpt lat="43.42957" lon="6.15745">
        <ele>310.2</ele>
        <time>2025-03-17T09:19:20Z</time>
      </trkpt>
      <trkpt lat="43.42948" lon="6.15747">
        <ele>311.2</ele>
        <time>2025-03-17T09:20:14Z</time>
      </trkpt>
      <trkpt lat="43.42957" lon="6.15746">
        <ele>311</ele>
        <time>2025-03-17T09:22:47Z</time>
      </trkpt>
      <trkpt lat="43.42966" lon="6.15752">
        <ele>310.6</ele>
        <time>2025-03-17T09:23:03Z</time>
      </trkpt>
      <trkpt lat="43.42971" lon="6.15762">
        <ele>310.1</ele>
        <time>2025-03-17T09:23:16Z</time>
      </trkpt>
      <trkpt lat="43.42979" lon="6.1577">
        <ele>310.1</ele>
        <time>2025-03-17T09:23:29Z</time>
      </trkpt>
      <trkpt lat="43.42987" lon="6.15777">
        <ele>309.8</ele>
        <time>2025-03-17T09:23:40Z</time>
      </trkpt>
      <trkpt lat="43.42994" lon="6.15785">
        <ele>309.3</ele>
        <time>2025-03-17T09:23:53Z</time>
      </trkpt>
      <trkpt lat="43.43" lon="6.15794">
        <ele>309.3</ele>
        <time>2025-03-17T09:24:04Z</time>
      </trkpt>
      <trkpt lat="43.43004" lon="6.15806">
        <ele>309.9</ele>
        <time>2025-03-17T09:24:17Z</time>
      </trkpt>
      <trkpt lat="43.43012" lon="6.15813">
        <ele>310.3</ele>
        <time>2025-03-17T09:24:29Z</time>
      </trkpt>
      <trkpt lat="43.4302" lon="6.15818">
        <ele>310.3</ele>
        <time>2025-03-17T09:24:38Z</time>
      </trkpt>
      <trkpt lat="43.43028" lon="6.15825">
        <ele>310.1</ele>
        <time>2025-03-17T09:24:49Z</time>
      </trkpt>
      <trkpt lat="43.43034" lon="6.15835">
        <ele>310.1</ele>
        <time>2025-03-17T09:24:59Z</time>
      </trkpt>
      <trkpt lat="43.43043" lon="6.1584">
        <ele>310.3</ele>
        <time>2025-03-17T09:25:12Z</time>
      </trkpt>
      <trkpt lat="43.43051" lon="6.15846">
        <ele>310.1</ele>
        <time>2025-03-17T09:25:24Z</time>
      </trkpt>
      <trkpt lat="43.43058" lon="6.15854">
        <ele>310.1</ele>
        <time>2025-03-17T09:25:37Z</time>
      </trkpt>
      <trkpt lat="43.43066" lon="6.15861">
        <ele>310.1</ele>
        <time>2025-03-17T09:25:48Z</time>
      </trkpt>
      <trkpt lat="43.43074" lon="6.15868">
        <ele>310.3</ele>
        <time>2025-03-17T09:26:00Z</time>
      </trkpt>
      <trkpt lat="43.43082" lon="6.15875">
        <ele>310.2</ele>
        <time>2025-03-17T09:26:09Z</time>
      </trkpt>
      <trkpt lat="43.43086" lon="6.15886">
        <ele>310.3</ele>
        <time>2025-03-17T09:26:21Z</time>
      </trkpt>
      <trkpt lat="43.4309" lon="6.15898">
        <ele>310.6</ele>
        <time>2025-03-17T09:26:35Z</time>
      </trkpt>
      <trkpt lat="43.43099" lon="6.15902">
        <ele>311.3</ele>
        <time>2025-03-17T09:26:49Z</time>
      </trkpt>
      <trkpt lat="43.43105" lon="6.15912">
        <ele>311.2</ele>
        <time>2025-03-17T09:27:00Z</time>
      </trkpt>
      <trkpt lat="43.43109" lon="6.15924">
        <ele>311.4</ele>
        <time>2025-03-17T09:27:13Z</time>
      </trkpt>
      <trkpt lat="43.43115" lon="6.15935">
        <ele>311.5</ele>
        <time>2025-03-17T09:27:26Z</time>
      </trkpt>
      <trkpt lat="43.43124" lon="6.1594">
        <ele>311.1</ele>
        <time>2025-03-17T09:27:41Z</time>
      </trkpt>
      <trkpt lat="43.4313" lon="6.15949">
        <ele>310.7</ele>
        <time>2025-03-17T09:27:57Z</time>
      </trkpt>
      <trkpt lat="43.43139" lon="6.15953">
        <ele>310</ele>
        <time>2025-03-17T09:28:09Z</time>
      </trkpt>
      <trkpt lat="43.43148" lon="6.15955">
        <ele>309.1</ele>
        <time>2025-03-17T09:28:22Z</time>
      </trkpt>
      <trkpt lat="43.43155" lon="6.15946">
        <ele>308.8</ele>
        <time>2025-03-17T09:28:38Z</time>
      </trkpt>
      <trkpt lat="43.43163" lon="6.15939">
        <ele>308.2</ele>
        <time>2025-03-17T09:28:59Z</time>
      </trkpt>
      <trkpt lat="43.43167" lon="6.1595">
        <ele>306.9</ele>
        <time>2025-03-17T09:29:36Z</time>
      </trkpt>
      <trkpt lat="43.43168" lon="6.15962">
        <ele>307</ele>
        <time>2025-03-17T09:37:07Z</time>
      </trkpt>
      <trkpt lat="43.43164" lon="6.15951">
        <ele>305.5</ele>
        <time>2025-03-17T09:39:28Z</time>
      </trkpt>
      <trkpt lat="43.43166" lon="6.15938">
        <ele>308.1</ele>
        <time>2025-03-17T09:42:01Z</time>
      </trkpt>
      <trkpt lat="43.43157" lon="6.15947">
        <ele>308.9</ele>
        <time>2025-03-17T09:45:34Z</time>
      </trkpt>
      <trkpt lat="43.43151" lon="6.15956">
        <ele>309</ele>
        <time>2025-03-17T09:45:49Z</time>
      </trkpt>
      <trkpt lat="43.43142" lon="6.15956">
        <ele>309.5</ele>
        <time>2025-03-17T09:46:05Z</time>
      </trkpt>
      <trkpt lat="43.43133" lon="6.15952">
        <ele>310.2</ele>
        <time>2025-03-17T09:46:21Z</time>
      </trkpt>
      <trkpt lat="43.43125" lon="6.15946">
        <ele>310.7</ele>
        <time>2025-03-17T09:46:35Z</time>
      </trkpt>
      <trkpt lat="43.43116" lon="6.15941">
        <ele>311.3</ele>
        <time>2025-03-17T09:46:50Z</time>
      </trkpt>
      <trkpt lat="43.4311" lon="6.15932">
        <ele>311.1</ele>
        <time>2025-03-17T09:47:02Z</time>
      </trkpt>
      <trkpt lat="43.43105" lon="6.1592">
        <ele>311</ele>
        <time>2025-03-17T09:47:14Z</time>
      </trkpt>
      <trkpt lat="43.43097" lon="6.15912">
        <ele>311.1</ele>
        <time>2025-03-17T09:47:25Z</time>
      </trkpt>
      <trkpt lat="43.43091" lon="6.15903">
        <ele>311.2</ele>
        <time>2025-03-17T09:47:36Z</time>
      </trkpt>
      <trkpt lat="43.43089" lon="6.15889">
        <ele>310.4</ele>
        <time>2025-03-17T09:47:50Z</time>
      </trkpt>
      <trkpt lat="43.43085" lon="6.15877">
        <ele>310.3</ele>
        <time>2025-03-17T09:48:22Z</time>
      </trkpt>
      <trkpt lat="43.43077" lon="6.1587">
        <ele>310.2</ele>
        <time>2025-03-17T09:48:34Z</time>
      </trkpt>
      <trkpt lat="43.43069" lon="6.15864">
        <ele>310</ele>
        <time>2025-03-17T09:48:44Z</time>
      </trkpt>
      <trkpt lat="43.43061" lon="6.15857">
        <ele>310.2</ele>
        <time>2025-03-17T09:48:54Z</time>
      </trkpt>
      <trkpt lat="43.43054" lon="6.15849">
        <ele>310.2</ele>
        <time>2025-03-17T09:49:04Z</time>
      </trkpt>
      <trkpt lat="43.43045" lon="6.15846">
        <ele>310.3</ele>
        <time>2025-03-17T09:49:13Z</time>
      </trkpt>
      <trkpt lat="43.43036" lon="6.15842">
        <ele>310.4</ele>
        <time>2025-03-17T09:49:23Z</time>
      </trkpt>
      <trkpt lat="43.43029" lon="6.15832">
        <ele>310</ele>
        <time>2025-03-17T09:49:35Z</time>
      </trkpt>
      <trkpt lat="43.43022" lon="6.15824">
        <ele>310.1</ele>
        <time>2025-03-17T09:49:50Z</time>
      </trkpt>
      <trkpt lat="43.43015" lon="6.15816">
        <ele>310.2</ele>
        <time>2025-03-17T09:50:01Z</time>
      </trkpt>
      <trkpt lat="43.43008" lon="6.15809">
        <ele>310.2</ele>
        <time>2025-03-17T09:50:11Z</time>
      </trkpt>
      <trkpt lat="43.43002" lon="6.15797">
        <ele>309.6</ele>
        <time>2025-03-17T09:50:24Z</time>
      </trkpt>
      <trkpt lat="43.42997" lon="6.15787">
        <ele>309.3</ele>
        <time>2025-03-17T09:50:46Z</time>
      </trkpt>
      <trkpt lat="43.42989" lon="6.1578">
        <ele>309.2</ele>
        <time>2025-03-17T09:50:56Z</time>
      </trkpt>
      <trkpt lat="43.42981" lon="6.15774">
        <ele>309.5</ele>
        <time>2025-03-17T09:51:06Z</time>
      </trkpt>
      <trkpt lat="43.42974" lon="6.15765">
        <ele>309.8</ele>
        <time>2025-03-17T09:51:17Z</time>
      </trkpt>
      <trkpt lat="43.42967" lon="6.15758">
        <ele>310.1</ele>
        <time>2025-03-17T09:51:27Z</time>
      </trkpt>
      <trkpt lat="43.42958" lon="6.15754">
        <ele>310.7</ele>
        <time>2025-03-17T09:51:40Z</time>
      </trkpt>
      <trkpt lat="43.4295" lon="6.15761">
        <ele>309.5</ele>
        <time>2025-03-17T09:52:23Z</time>
      </trkpt>
      <trkpt lat="43.42953" lon="6.1575">
        <ele>310.9</ele>
        <time>2025-03-17T09:54:44Z</time>
      </trkpt>
      <trkpt lat="43.42953" lon="6.15762">
        <ele>311.1</ele>
        <time>2025-03-17T09:56:05Z</time>
      </trkpt>
      <trkpt lat="43.4295" lon="6.15774">
        <ele>311.8</ele>
        <time>2025-03-17T09:56:27Z</time>
      </trkpt>
      <trkpt lat="43.42946" lon="6.15787">
        <ele>312</ele>
        <time>2025-03-17T09:56:38Z</time>
      </trkpt>
      <trkpt lat="43.42942" lon="6.15799">
        <ele>312.3</ele>
        <time>2025-03-17T09:56:48Z</time>
      </trkpt>
      <trkpt lat="43.42936" lon="6.15809">
        <ele>313.2</ele>
        <time>2025-03-17T09:56:58Z</time>
      </trkpt>
      <trkpt lat="43.4293" lon="6.15819">
        <ele>313.1</ele>
        <time>2025-03-17T09:57:07Z</time>
      </trkpt>
      <trkpt lat="43.42926" lon="6.1583">
        <ele>312.9</ele>
        <time>2025-03-17T09:57:16Z</time>
      </trkpt>
      <trkpt lat="43.42926" lon="6.15844">
        <ele>313.8</ele>
        <time>2025-03-17T09:57:26Z</time>
      </trkpt>
      <trkpt lat="43.42925" lon="6.15857">
        <ele>313.6</ele>
        <time>2025-03-17T09:57:38Z</time>
      </trkpt>
      <trkpt lat="43.42921" lon="6.15868">
        <ele>313.7</ele>
        <time>2025-03-17T09:58:01Z</time>
      </trkpt>
      <trkpt lat="43.42919" lon="6.15881">
        <ele>313.7</ele>
        <time>2025-03-17T09:58:12Z</time>
      </trkpt>
      <trkpt lat="43.42914" lon="6.15891">
        <ele>314.3</ele>
        <time>2025-03-17T09:58:23Z</time>
      </trkpt>
      <trkpt lat="43.42909" lon="6.15903">
        <ele>314</ele>
        <time>2025-03-17T09:58:39Z</time>
      </trkpt>
      <trkpt lat="43.42906" lon="6.15915">
        <ele>314.1</ele>
        <time>2025-03-17T09:58:49Z</time>
      </trkpt>
      <trkpt lat="43.42903" lon="6.15927">
        <ele>314.3</ele>
        <time>2025-03-17T09:58:58Z</time>
      </trkpt>
      <trkpt lat="43.42895" lon="6.15937">
        <ele>314.2</ele>
        <time>2025-03-17T09:59:06Z</time>
      </trkpt>
      <trkpt lat="43.42887" lon="6.15946">
        <ele>313.7</ele>
        <time>2025-03-17T09:59:14Z</time>
      </trkpt>
      <trkpt lat="43.42879" lon="6.15953">
        <ele>313.1</ele>
        <time>2025-03-17T09:59:20Z</time>
      </trkpt>
      <trkpt lat="43.42873" lon="6.15963">
        <ele>313.5</ele>
        <time>2025-03-17T09:59:29Z</time>
      </trkpt>
      <trkpt lat="43.42869" lon="6.15976">
        <ele>313.9</ele>
        <time>2025-03-17T09:59:37Z</time>
      </trkpt>
      <trkpt lat="43.42866" lon="6.15988">
        <ele>313.8</ele>
        <time>2025-03-17T09:59:46Z</time>
      </trkpt>
      <trkpt lat="43.42863" lon="6.16001">
        <ele>313.5</ele>
        <time>2025-03-17T09:59:55Z</time>
      </trkpt>
      <trkpt lat="43.42854" lon="6.16007">
        <ele>313.1</ele>
        <time>2025-03-17T10:00:15Z</time>
      </trkpt>
      <trkpt lat="43.42846" lon="6.16005">
        <ele>312.8</ele>
        <time>2025-03-17T10:00:28Z</time>
      </trkpt>
      <trkpt lat="43.42837" lon="6.16012">
        <ele>313.3</ele>
        <time>2025-03-17T10:00:46Z</time>
      </trkpt>
      <trkpt lat="43.42834" lon="6.16023">
        <ele>313.7</ele>
        <time>2025-03-17T10:01:05Z</time>
      </trkpt>
      <trkpt lat="43.42824" lon="6.16023">
        <ele>313.4</ele>
        <time>2025-03-17T10:01:21Z</time>
      </trkpt>
      <trkpt lat="43.42815" lon="6.16023">
        <ele>313.2</ele>
        <time>2025-03-17T10:01:35Z</time>
      </trkpt>
      <trkpt lat="43.42805" lon="6.16023">
        <ele>313.5</ele>
        <time>2025-03-17T10:01:48Z</time>
      </trkpt>
      <trkpt lat="43.42798" lon="6.16031">
        <ele>313.1</ele>
        <time>2025-03-17T10:02:08Z</time>
      </trkpt>
      <trkpt lat="43.42789" lon="6.16032">
        <ele>313.8</ele>
        <time>2025-03-17T10:02:19Z</time>
      </trkpt>
      <trkpt lat="43.4278" lon="6.16035">
        <ele>314.1</ele>
        <time>2025-03-17T10:02:30Z</time>
      </trkpt>
      <trkpt lat="43.42771" lon="6.16038">
        <ele>313.8</ele>
        <time>2025-03-17T10:02:57Z</time>
      </trkpt>
      <trkpt lat="43.42761" lon="6.16039">
        <ele>314.2</ele>
        <time>2025-03-17T10:03:12Z</time>
      </trkpt>
      <trkpt lat="43.42752" lon="6.16042">
        <ele>314.5</ele>
        <time>2025-03-17T10:03:48Z</time>
      </trkpt>
      <trkpt lat="43.42743" lon="6.16045">
        <ele>314.2</ele>
        <time>2025-03-17T10:04:16Z</time>
      </trkpt>
      <trkpt lat="43.42734" lon="6.16048">
        <ele>315</ele>
        <time>2025-03-17T10:04:25Z</time>
      </trkpt>
      <trkpt lat="43.42725" lon="6.16052">
        <ele>314.9</ele>
        <time>2025-03-17T10:04:35Z</time>
      </trkpt>
      <trkpt lat="43.42716" lon="6.16056">
        <ele>314.8</ele>
        <time>2025-03-17T10:04:48Z</time>
      </trkpt>
      <trkpt lat="43.42705" lon="6.16056">
        <ele>315.2</ele>
        <time>2025-03-17T10:04:58Z</time>
      </trkpt>
      <trkpt lat="43.42696" lon="6.16058">
        <ele>314.6</ele>
        <time>2025-03-17T10:05:07Z</time>
      </trkpt>
      <trkpt lat="43.42686" lon="6.16058">
        <ele>314.6</ele>
        <time>2025-03-17T10:05:19Z</time>
      </trkpt>
      <trkpt lat="43.42677" lon="6.16061">
        <ele>314.3</ele>
        <time>2025-03-17T10:05:31Z</time>
      </trkpt>
      <trkpt lat="43.42668" lon="6.16062">
        <ele>314.1</ele>
        <time>2025-03-17T10:05:43Z</time>
      </trkpt>
      <trkpt lat="43.42658" lon="6.16065">
        <ele>314.3</ele>
        <time>2025-03-17T10:05:53Z</time>
      </trkpt>
      <trkpt lat="43.42649" lon="6.16068">
        <ele>314.3</ele>
        <time>2025-03-17T10:06:02Z</time>
      </trkpt>
      <trkpt lat="43.4264" lon="6.16071">
        <ele>314.5</ele>
        <time>2025-03-17T10:06:11Z</time>
      </trkpt>
      <trkpt lat="43.4263" lon="6.16073">
        <ele>314.7</ele>
        <time>2025-03-17T10:06:21Z</time>
      </trkpt>
      <trkpt lat="43.4262" lon="6.16075">
        <ele>315.2</ele>
        <time>2025-03-17T10:06:38Z</time>
      </trkpt>
      <trkpt lat="43.42611" lon="6.16078">
        <ele>315.7</ele>
        <time>2025-03-17T10:06:49Z</time>
      </trkpt>
      <trkpt lat="43.42602" lon="6.16079">
        <ele>317.1</ele>
        <time>2025-03-17T10:07:04Z</time>
      </trkpt>
      <trkpt lat="43.42593" lon="6.16084">
        <ele>318.4</ele>
        <time>2025-03-17T10:07:15Z</time>
      </trkpt>
      <trkpt lat="43.42584" lon="6.16081">
        <ele>319.5</ele>
        <time>2025-03-17T10:07:28Z</time>
      </trkpt>
      <trkpt lat="43.42578" lon="6.16072">
        <ele>319.8</ele>
        <time>2025-03-17T10:07:42Z</time>
      </trkpt>
      <trkpt lat="43.42573" lon="6.1606">
        <ele>320</ele>
        <time>2025-03-17T10:07:56Z</time>
      </trkpt>
      <trkpt lat="43.4257" lon="6.16048">
        <ele>320.1</ele>
        <time>2025-03-17T10:08:07Z</time>
      </trkpt>
      <trkpt lat="43.42567" lon="6.16036">
        <ele>320.1</ele>
        <time>2025-03-17T10:08:22Z</time>
      </trkpt>
      <trkpt lat="43.42561" lon="6.16025">
        <ele>320.4</ele>
        <time>2025-03-17T10:08:54Z</time>
      </trkpt>
      <trkpt lat="43.42556" lon="6.16014">
        <ele>320.4</ele>
        <time>2025-03-17T10:09:10Z</time>
      </trkpt>
      <trkpt lat="43.42551" lon="6.16004">
        <ele>320.6</ele>
        <time>2025-03-17T10:09:18Z</time>
      </trkpt>
      <trkpt lat="43.42546" lon="6.15993">
        <ele>320.7</ele>
        <time>2025-03-17T10:09:28Z</time>
      </trkpt>
      <trkpt lat="43.4254" lon="6.15984">
        <ele>321.1</ele>
        <time>2025-03-17T10:09:38Z</time>
      </trkpt>
      <trkpt lat="43.42532" lon="6.15978">
        <ele>321.2</ele>
        <time>2025-03-17T10:09:47Z</time>
      </trkpt>
      <trkpt lat="43.42527" lon="6.15967">
        <ele>321.3</ele>
        <time>2025-03-17T10:10:03Z</time>
      </trkpt>
      <trkpt lat="43.42518" lon="6.15963">
        <ele>321.7</ele>
        <time>2025-03-17T10:10:44Z</time>
      </trkpt>
      <trkpt lat="43.4251" lon="6.15957">
        <ele>321.6</ele>
        <time>2025-03-17T10:11:00Z</time>
      </trkpt>
      <trkpt lat="43.42502" lon="6.1595">
        <ele>321.9</ele>
        <time>2025-03-17T10:11:11Z</time>
      </trkpt>
      <trkpt lat="43.42495" lon="6.15942">
        <ele>322.2</ele>
        <time>2025-03-17T10:11:22Z</time>
      </trkpt>
      <trkpt lat="43.42487" lon="6.15936">
        <ele>321.1</ele>
        <time>2025-03-17T10:11:35Z</time>
      </trkpt>
      <trkpt lat="43.42479" lon="6.15928">
        <ele>320.4</ele>
        <time>2025-03-17T10:11:45Z</time>
      </trkpt>
      <trkpt lat="43.42472" lon="6.1592">
        <ele>319.9</ele>
        <time>2025-03-17T10:11:54Z</time>
      </trkpt>
      <trkpt lat="43.42463" lon="6.15913">
        <ele>319.5</ele>
        <time>2025-03-17T10:12:03Z</time>
      </trkpt>
      <trkpt lat="43.42455" lon="6.15907">
        <ele>319.2</ele>
        <time>2025-03-17T10:12:12Z</time>
      </trkpt>
      <trkpt lat="43.42447" lon="6.159">
        <ele>319.1</ele>
        <time>2025-03-17T10:12:22Z</time>
      </trkpt>
      <trkpt lat="43.42439" lon="6.15893">
        <ele>318.7</ele>
        <time>2025-03-17T10:13:06Z</time>
      </trkpt>
      <trkpt lat="43.42432" lon="6.15886">
        <ele>319</ele>
        <time>2025-03-17T10:13:34Z</time>
      </trkpt>
      <trkpt lat="43.42423" lon="6.15883">
        <ele>319</ele>
        <time>2025-03-17T10:13:47Z</time>
      </trkpt>
      <trkpt lat="43.42414" lon="6.15878">
        <ele>319.3</ele>
        <time>2025-03-17T10:13:58Z</time>
      </trkpt>
      <trkpt lat="43.42405" lon="6.15872">
        <ele>319</ele>
        <time>2025-03-17T10:14:07Z</time>
      </trkpt>
      <trkpt lat="43.42397" lon="6.15868">
        <ele>318.9</ele>
        <time>2025-03-17T10:14:16Z</time>
      </trkpt>
      <trkpt lat="43.42388" lon="6.15865">
        <ele>318.7</ele>
        <time>2025-03-17T10:14:25Z</time>
      </trkpt>
      <trkpt lat="43.42379" lon="6.15859">
        <ele>318.3</ele>
        <time>2025-03-17T10:14:35Z</time>
      </trkpt>
      <trkpt lat="43.4237" lon="6.15854">
        <ele>317.6</ele>
        <time>2025-03-17T10:14:45Z</time>
      </trkpt>
      <trkpt lat="43.42362" lon="6.15848">
        <ele>316.7</ele>
        <time>2025-03-17T10:14:55Z</time>
      </trkpt>
      <trkpt lat="43.42354" lon="6.15841">
        <ele>316.2</ele>
        <time>2025-03-17T10:15:13Z</time>
      </trkpt>
      <trkpt lat="43.4235" lon="6.1583">
        <ele>315.7</ele>
        <time>2025-03-17T10:15:29Z</time>
      </trkpt>
      <trkpt lat="43.4234" lon="6.15828">
        <ele>315.8</ele>
        <time>2025-03-17T10:15:42Z</time>
      </trkpt>
      <trkpt lat="43.42332" lon="6.15826">
        <ele>315.9</ele>
        <time>2025-03-17T10:15:54Z</time>
      </trkpt>
      <trkpt lat="43.42323" lon="6.15831">
        <ele>316.5</ele>
        <time>2025-03-17T10:16:17Z</time>
      </trkpt>
      <trkpt lat="43.42315" lon="6.15824">
        <ele>316.6</ele>
        <time>2025-03-17T10:17:53Z</time>
      </trkpt>
      <trkpt lat="43.42306" lon="6.1582">
        <ele>317.1</ele>
        <time>2025-03-17T10:18:15Z</time>
      </trkpt>
      <trkpt lat="43.42298" lon="6.15816">
        <ele>317.5</ele>
        <time>2025-03-17T10:18:25Z</time>
      </trkpt>
      <trkpt lat="43.42289" lon="6.15811">
        <ele>317.8</ele>
        <time>2025-03-17T10:18:42Z</time>
      </trkpt>
      <trkpt lat="43.42283" lon="6.15802">
        <ele>317.5</ele>
        <time>2025-03-17T10:18:59Z</time>
      </trkpt>
      <trkpt lat="43.42274" lon="6.15796">
        <ele>317.5</ele>
        <time>2025-03-17T10:19:16Z</time>
      </trkpt>
      <trkpt lat="43.42266" lon="6.15801">
        <ele>318.2</ele>
        <time>2025-03-17T10:19:30Z</time>
      </trkpt>
      <trkpt lat="43.42257" lon="6.15797">
        <ele>317.7</ele>
        <time>2025-03-17T10:19:45Z</time>
      </trkpt>
      <trkpt lat="43.42248" lon="6.15794">
        <ele>317.4</ele>
        <time>2025-03-17T10:19:55Z</time>
      </trkpt>
      <trkpt lat="43.42239" lon="6.15789">
        <ele>317.3</ele>
        <time>2025-03-17T10:20:06Z</time>
      </trkpt>
      <trkpt lat="43.42231" lon="6.15784">
        <ele>316.8</ele>
        <time>2025-03-17T10:20:17Z</time>
      </trkpt>
      <trkpt lat="43.42222" lon="6.15781">
        <ele>316.5</ele>
        <time>2025-03-17T10:20:34Z</time>
      </trkpt>
      <trkpt lat="43.42221" lon="6.15768">
        <ele>316</ele>
        <time>2025-03-17T10:20:59Z</time>
      </trkpt>
      <trkpt lat="43.42217" lon="6.15756">
        <ele>316.7</ele>
        <time>2025-03-17T10:21:20Z</time>
      </trkpt>
      <trkpt lat="43.42219" lon="6.15744">
        <ele>315.5</ele>
        <time>2025-03-17T10:21:34Z</time>
      </trkpt>
      <trkpt lat="43.42222" lon="6.15732">
        <ele>315.6</ele>
        <time>2025-03-17T10:22:27Z</time>
      </trkpt>
      <trkpt lat="43.42229" lon="6.15722">
        <ele>316.3</ele>
        <time>2025-03-17T10:23:37Z</time>
      </trkpt>
      <trkpt lat="43.42228" lon="6.15709">
        <ele>315.5</ele>
        <time>2025-03-17T10:23:51Z</time>
      </trkpt>
      <trkpt lat="43.42232" lon="6.15696">
        <ele>314.9</ele>
        <time>2025-03-17T10:24:02Z</time>
      </trkpt>
      <trkpt lat="43.42236" lon="6.15685">
        <ele>314.6</ele>
        <time>2025-03-17T10:24:13Z</time>
      </trkpt>
      <trkpt lat="43.42243" lon="6.15675">
        <ele>314.8</ele>
        <time>2025-03-17T10:24:25Z</time>
      </trkpt>
      <trkpt lat="43.42248" lon="6.15663">
        <ele>314.2</ele>
        <time>2025-03-17T10:24:38Z</time>
      </trkpt>
      <trkpt lat="43.42251" lon="6.15651">
        <ele>313.5</ele>
        <time>2025-03-17T10:24:47Z</time>
      </trkpt>
      <trkpt lat="43.42257" lon="6.1564">
        <ele>313.1</ele>
        <time>2025-03-17T10:24:57Z</time>
      </trkpt>
      <trkpt lat="43.42264" lon="6.1563">
        <ele>313.5</ele>
        <time>2025-03-17T10:25:08Z</time>
      </trkpt>
      <trkpt lat="43.42269" lon="6.1562">
        <ele>313.2</ele>
        <time>2025-03-17T10:25:19Z</time>
      </trkpt>
      <trkpt lat="43.42274" lon="6.15609">
        <ele>313.3</ele>
        <time>2025-03-17T10:25:33Z</time>
      </trkpt>
      <trkpt lat="43.42273" lon="6.15595">
        <ele>312.2</ele>
        <time>2025-03-17T10:25:46Z</time>
      </trkpt>
      <trkpt lat="43.42271" lon="6.15583">
        <ele>311.4</ele>
        <time>2025-03-17T10:25:56Z</time>
      </trkpt>
      <trkpt lat="43.42267" lon="6.15571">
        <ele>310.8</ele>
        <time>2025-03-17T10:26:07Z</time>
      </trkpt>
      <trkpt lat="43.4226" lon="6.15561">
        <ele>310.1</ele>
        <time>2025-03-17T10:26:19Z</time>
      </trkpt>
      <trkpt lat="43.42252" lon="6.15556">
        <ele>309.8</ele>
        <time>2025-03-17T10:26:43Z</time>
      </trkpt>
      <trkpt lat="43.42243" lon="6.1555">
        <ele>309.5</ele>
        <time>2025-03-17T10:26:54Z</time>
      </trkpt>
      <trkpt lat="43.42234" lon="6.15545">
        <ele>308.9</ele>
        <time>2025-03-17T10:27:05Z</time>
      </trkpt>
      <trkpt lat="43.42224" lon="6.15543">
        <ele>308.8</ele>
        <time>2025-03-17T10:27:15Z</time>
      </trkpt>
      <trkpt lat="43.42215" lon="6.15542">
        <ele>308.6</ele>
        <time>2025-03-17T10:27:26Z</time>
      </trkpt>
      <trkpt lat="43.42206" lon="6.15547">
        <ele>308.5</ele>
        <time>2025-03-17T10:27:37Z</time>
      </trkpt>
      <trkpt lat="43.42196" lon="6.15544">
        <ele>308.2</ele>
        <time>2025-03-17T10:27:49Z</time>
      </trkpt>
      <trkpt lat="43.42187" lon="6.15541">
        <ele>308.1</ele>
        <time>2025-03-17T10:28:00Z</time>
      </trkpt>
      <trkpt lat="43.42178" lon="6.15542">
        <ele>307.8</ele>
        <time>2025-03-17T10:28:09Z</time>
      </trkpt>
      <trkpt lat="43.42169" lon="6.15542">
        <ele>307.4</ele>
        <time>2025-03-17T10:28:18Z</time>
      </trkpt>
      <trkpt lat="43.4216" lon="6.1554">
        <ele>307.2</ele>
        <time>2025-03-17T10:28:28Z</time>
      </trkpt>
      <trkpt lat="43.42151" lon="6.15537">
        <ele>306.9</ele>
        <time>2025-03-17T10:28:39Z</time>
      </trkpt>
      <trkpt lat="43.42143" lon="6.15529">
        <ele>307</ele>
        <time>2025-03-17T10:28:51Z</time>
      </trkpt>
      <trkpt lat="43.42138" lon="6.15517">
        <ele>307</ele>
        <time>2025-03-17T10:29:02Z</time>
      </trkpt>
      <trkpt lat="43.42136" lon="6.15505">
        <ele>306.9</ele>
        <time>2025-03-17T10:29:12Z</time>
      </trkpt>
      <trkpt lat="43.42132" lon="6.15494">
        <ele>306.6</ele>
        <time>2025-03-17T10:29:22Z</time>
      </trkpt>
      <trkpt lat="43.42126" lon="6.15484">
        <ele>306.5</ele>
        <time>2025-03-17T10:29:33Z</time>
      </trkpt>
      <trkpt lat="43.4212" lon="6.15475">
        <ele>306.6</ele>
        <time>2025-03-17T10:29:52Z</time>
      </trkpt>
      <trkpt lat="43.42114" lon="6.15465">
        <ele>306.6</ele>
        <time>2025-03-17T10:30:06Z</time>
      </trkpt>
      <trkpt lat="43.4211" lon="6.15453">
        <ele>306.6</ele>
        <time>2025-03-17T10:30:18Z</time>
      </trkpt>
      <trkpt lat="43.42107" lon="6.15442">
        <ele>306.6</ele>
        <time>2025-03-17T10:30:28Z</time>
      </trkpt>
      <trkpt lat="43.42105" lon="6.15429">
        <ele>306.3</ele>
        <time>2025-03-17T10:30:46Z</time>
      </trkpt>
      <trkpt lat="43.42105" lon="6.15416">
        <ele>306.1</ele>
        <time>2025-03-17T10:30:56Z</time>
      </trkpt>
      <trkpt lat="43.42107" lon="6.15402">
        <ele>306</ele>
        <time>2025-03-17T10:31:06Z</time>
      </trkpt>
      <trkpt lat="43.4211" lon="6.15389">
        <ele>305.6</ele>
        <time>2025-03-17T10:31:16Z</time>
      </trkpt>
      <trkpt lat="43.42115" lon="6.15378">
        <ele>305.4</ele>
        <time>2025-03-17T10:31:26Z</time>
      </trkpt>
      <trkpt lat="43.42119" lon="6.15366">
        <ele>305.2</ele>
        <time>2025-03-17T10:31:36Z</time>
      </trkpt>
      <trkpt lat="43.42119" lon="6.15353">
        <ele>305</ele>
        <time>2025-03-17T10:31:50Z</time>
      </trkpt>
      <trkpt lat="43.42123" lon="6.1534">
        <ele>304.7</ele>
        <time>2025-03-17T10:32:20Z</time>
      </trkpt>
      <trkpt lat="43.42125" lon="6.15327">
        <ele>304.5</ele>
        <time>2025-03-17T10:32:31Z</time>
      </trkpt>
      <trkpt lat="43.42124" lon="6.15315">
        <ele>304.3</ele>
        <time>2025-03-17T10:32:44Z</time>
      </trkpt>
      <trkpt lat="43.42124" lon="6.15302">
        <ele>303.9</ele>
        <time>2025-03-17T10:32:55Z</time>
      </trkpt>
      <trkpt lat="43.42121" lon="6.15289">
        <ele>304</ele>
        <time>2025-03-17T10:33:07Z</time>
      </trkpt>
      <trkpt lat="43.42118" lon="6.15277">
        <ele>303.9</ele>
        <time>2025-03-17T10:33:19Z</time>
      </trkpt>
      <trkpt lat="43.42116" lon="6.15264">
        <ele>303.7</ele>
        <time>2025-03-17T10:33:33Z</time>
      </trkpt>
      <trkpt lat="43.42113" lon="6.15252">
        <ele>303.5</ele>
        <time>2025-03-17T10:33:43Z</time>
      </trkpt>
      <trkpt lat="43.42112" lon="6.1524">
        <ele>303.5</ele>
        <time>2025-03-17T10:33:58Z</time>
      </trkpt>
      <trkpt lat="43.42109" lon="6.15228">
        <ele>303.4</ele>
        <time>2025-03-17T10:34:10Z</time>
      </trkpt>
      <trkpt lat="43.42109" lon="6.15214">
        <ele>303.4</ele>
        <time>2025-03-17T10:34:20Z</time>
      </trkpt>
      <trkpt lat="43.42114" lon="6.15203">
        <ele>303.2</ele>
        <time>2025-03-17T10:34:33Z</time>
      </trkpt>
      <trkpt lat="43.42117" lon="6.15191">
        <ele>302.9</ele>
        <time>2025-03-17T10:35:23Z</time>
      </trkpt>
      <trkpt lat="43.42109" lon="6.15184">
        <ele>314.4</ele>
        <time>2025-03-17T11:11:21Z</time>
      </trkpt>
      <trkpt lat="43.42115" lon="6.15193">
        <ele>317</ele>
        <time>2025-03-17T11:16:38Z</time>
      </trkpt>
      <trkpt lat="43.42122" lon="6.15185">
        <ele>317.3</ele>
        <time>2025-03-17T11:22:39Z</time>
      </trkpt>
      <trkpt lat="43.42115" lon="6.15194">
        <ele>318.6</ele>
        <time>2025-03-17T11:32:42Z</time>
      </trkpt>
      <trkpt lat="43.42106" lon="6.15193">
        <ele>318.8</ele>
        <time>2025-03-17T11:33:03Z</time>
      </trkpt>
      <trkpt lat="43.42108" lon="6.15181">
        <ele>319.4</ele>
        <time>2025-03-17T11:36:35Z</time>
      </trkpt>
      <trkpt lat="43.42102" lon="6.15172">
        <ele>319.3</ele>
        <time>2025-03-17T11:38:03Z</time>
      </trkpt>
      <trkpt lat="43.42099" lon="6.1516">
        <ele>319.5</ele>
        <time>2025-03-17T11:38:13Z</time>
      </trkpt>
      <trkpt lat="43.42093" lon="6.1515">
        <ele>319.3</ele>
        <time>2025-03-17T11:38:25Z</time>
      </trkpt>
      <trkpt lat="43.42087" lon="6.15139">
        <ele>319.3</ele>
        <time>2025-03-17T11:38:36Z</time>
      </trkpt>
      <trkpt lat="43.42083" lon="6.15128">
        <ele>319.2</ele>
        <time>2025-03-17T11:38:49Z</time>
      </trkpt>
      <trkpt lat="43.42077" lon="6.15117">
        <ele>319.3</ele>
        <time>2025-03-17T11:39:00Z</time>
      </trkpt>
      <trkpt lat="43.42072" lon="6.15107">
        <ele>319.3</ele>
        <time>2025-03-17T11:39:24Z</time>
      </trkpt>
      <trkpt lat="43.42062" lon="6.15102">
        <ele>319.1</ele>
        <time>2025-03-17T11:39:37Z</time>
      </trkpt>
      <trkpt lat="43.42053" lon="6.15099">
        <ele>318.9</ele>
        <time>2025-03-17T11:39:48Z</time>
      </trkpt>
      <trkpt lat="43.42044" lon="6.15094">
        <ele>318.5</ele>
        <time>2025-03-17T11:39:57Z</time>
      </trkpt>
      <trkpt lat="43.42038" lon="6.15084">
        <ele>318.2</ele>
        <time>2025-03-17T11:40:08Z</time>
      </trkpt>
      <trkpt lat="43.42035" lon="6.15071">
        <ele>318.1</ele>
        <time>2025-03-17T11:40:32Z</time>
      </trkpt>
      <trkpt lat="43.42036" lon="6.15058">
        <ele>318</ele>
        <time>2025-03-17T11:40:41Z</time>
      </trkpt>
      <trkpt lat="43.42035" lon="6.15045">
        <ele>317.6</ele>
        <time>2025-03-17T11:40:50Z</time>
      </trkpt>
      <trkpt lat="43.42033" lon="6.15032">
        <ele>317.5</ele>
        <time>2025-03-17T11:40:59Z</time>
      </trkpt>
      <trkpt lat="43.42031" lon="6.15018">
        <ele>317.3</ele>
        <time>2025-03-17T11:41:12Z</time>
      </trkpt>
      <trkpt lat="43.42029" lon="6.15006">
        <ele>317</ele>
        <time>2025-03-17T11:41:22Z</time>
      </trkpt>
      <trkpt lat="43.42025" lon="6.14993">
        <ele>316.8</ele>
        <time>2025-03-17T11:41:32Z</time>
      </trkpt>
      <trkpt lat="43.42023" lon="6.14981">
        <ele>316.7</ele>
        <time>2025-03-17T11:41:43Z</time>
      </trkpt>
      <trkpt lat="43.4202" lon="6.14968">
        <ele>316.7</ele>
        <time>2025-03-17T11:41:55Z</time>
      </trkpt>
      <trkpt lat="43.4202" lon="6.14956">
        <ele>317</ele>
        <time>2025-03-17T11:42:29Z</time>
      </trkpt>
      <trkpt lat="43.42015" lon="6.14945">
        <ele>316.5</ele>
        <time>2025-03-17T11:42:39Z</time>
      </trkpt>
      <trkpt lat="43.42011" lon="6.14933">
        <ele>316.1</ele>
        <time>2025-03-17T11:42:48Z</time>
      </trkpt>
      <trkpt lat="43.4201" lon="6.1492">
        <ele>316</ele>
        <time>2025-03-17T11:42:57Z</time>
      </trkpt>
      <trkpt lat="43.42004" lon="6.1491">
        <ele>316</ele>
        <time>2025-03-17T11:43:06Z</time>
      </trkpt>
      <trkpt lat="43.41996" lon="6.14902">
        <ele>315.9</ele>
        <time>2025-03-17T11:43:16Z</time>
      </trkpt>
      <trkpt lat="43.41988" lon="6.14895">
        <ele>315.8</ele>
        <time>2025-03-17T11:43:27Z</time>
      </trkpt>
      <trkpt lat="43.41983" lon="6.14884">
        <ele>315.9</ele>
        <time>2025-03-17T11:43:38Z</time>
      </trkpt>
      <trkpt lat="43.41977" lon="6.14875">
        <ele>315.9</ele>
        <time>2025-03-17T11:43:48Z</time>
      </trkpt>
      <trkpt lat="43.41969" lon="6.1487">
        <ele>316.1</ele>
        <time>2025-03-17T11:44:01Z</time>
      </trkpt>
      <trkpt lat="43.41964" lon="6.14859">
        <ele>316.1</ele>
        <time>2025-03-17T11:44:14Z</time>
      </trkpt>
      <trkpt lat="43.41958" lon="6.14848">
        <ele>316.1</ele>
        <time>2025-03-17T11:44:25Z</time>
      </trkpt>
      <trkpt lat="43.41952" lon="6.14839">
        <ele>316.1</ele>
        <time>2025-03-17T11:44:34Z</time>
      </trkpt>
      <trkpt lat="43.41946" lon="6.1483">
        <ele>316.1</ele>
        <time>2025-03-17T11:44:43Z</time>
      </trkpt>
      <trkpt lat="43.41938" lon="6.14822">
        <ele>316.1</ele>
        <time>2025-03-17T11:44:52Z</time>
      </trkpt>
      <trkpt lat="43.41932" lon="6.14811">
        <ele>316.2</ele>
        <time>2025-03-17T11:45:02Z</time>
      </trkpt>
      <trkpt lat="43.41925" lon="6.14802">
        <ele>316.3</ele>
        <time>2025-03-17T11:45:11Z</time>
      </trkpt>
      <trkpt lat="43.41919" lon="6.14791">
        <ele>316.4</ele>
        <time>2025-03-17T11:45:20Z</time>
      </trkpt>
      <trkpt lat="43.41912" lon="6.14784">
        <ele>316.5</ele>
        <time>2025-03-17T11:45:30Z</time>
      </trkpt>
      <trkpt lat="43.41903" lon="6.14777">
        <ele>316.4</ele>
        <time>2025-03-17T11:45:41Z</time>
      </trkpt>
      <trkpt lat="43.41901" lon="6.14765">
        <ele>316.5</ele>
        <time>2025-03-17T11:45:52Z</time>
      </trkpt>
      <trkpt lat="43.41904" lon="6.14753">
        <ele>316.5</ele>
        <time>2025-03-17T11:46:02Z</time>
      </trkpt>
      <trkpt lat="43.41907" lon="6.14742">
        <ele>316.3</ele>
        <time>2025-03-17T11:46:12Z</time>
      </trkpt>
      <trkpt lat="43.41908" lon="6.14728">
        <ele>316.1</ele>
        <time>2025-03-17T11:46:22Z</time>
      </trkpt>
      <trkpt lat="43.41908" lon="6.14715">
        <ele>315.8</ele>
        <time>2025-03-17T11:46:32Z</time>
      </trkpt>
      <trkpt lat="43.41907" lon="6.14702">
        <ele>315.5</ele>
        <time>2025-03-17T11:46:42Z</time>
      </trkpt>
      <trkpt lat="43.41907" lon="6.14688">
        <ele>315.1</ele>
        <time>2025-03-17T11:46:52Z</time>
      </trkpt>
      <trkpt lat="43.41907" lon="6.14676">
        <ele>314.7</ele>
        <time>2025-03-17T11:47:02Z</time>
      </trkpt>
      <trkpt lat="43.41907" lon="6.14662">
        <ele>314</ele>
        <time>2025-03-17T11:47:13Z</time>
      </trkpt>
      <trkpt lat="43.41905" lon="6.14649">
        <ele>313.6</ele>
        <time>2025-03-17T11:47:24Z</time>
      </trkpt>
      <trkpt lat="43.41902" lon="6.14637">
        <ele>313.1</ele>
        <time>2025-03-17T11:47:34Z</time>
      </trkpt>
      <trkpt lat="43.41898" lon="6.14625">
        <ele>313.1</ele>
        <time>2025-03-17T11:47:44Z</time>
      </trkpt>
      <trkpt lat="43.41894" lon="6.14613">
        <ele>312.9</ele>
        <time>2025-03-17T11:47:55Z</time>
      </trkpt>
      <trkpt lat="43.41889" lon="6.14601">
        <ele>312.8</ele>
        <time>2025-03-17T11:48:06Z</time>
      </trkpt>
      <trkpt lat="43.41888" lon="6.14588">
        <ele>312.5</ele>
        <time>2025-03-17T11:48:19Z</time>
      </trkpt>
      <trkpt lat="43.41888" lon="6.14575">
        <ele>312.4</ele>
        <time>2025-03-17T11:48:29Z</time>
      </trkpt>
      <trkpt lat="43.41888" lon="6.14562">
        <ele>312.2</ele>
        <time>2025-03-17T11:48:39Z</time>
      </trkpt>
      <trkpt lat="43.41889" lon="6.1455">
        <ele>312.1</ele>
        <time>2025-03-17T11:48:48Z</time>
      </trkpt>
      <trkpt lat="43.41894" lon="6.14538">
        <ele>311.9</ele>
        <time>2025-03-17T11:48:59Z</time>
      </trkpt>
      <trkpt lat="43.41899" lon="6.14527">
        <ele>311.6</ele>
        <time>2025-03-17T11:49:09Z</time>
      </trkpt>
      <trkpt lat="43.41904" lon="6.14516">
        <ele>311</ele>
        <time>2025-03-17T11:49:19Z</time>
      </trkpt>
      <trkpt lat="43.41909" lon="6.14505">
        <ele>310.6</ele>
        <time>2025-03-17T11:49:29Z</time>
      </trkpt>
      <trkpt lat="43.41913" lon="6.14493">
        <ele>310.5</ele>
        <time>2025-03-17T11:49:38Z</time>
      </trkpt>
      <trkpt lat="43.41916" lon="6.14481">
        <ele>310.3</ele>
        <time>2025-03-17T11:49:47Z</time>
      </trkpt>
      <trkpt lat="43.41919" lon="6.14468">
        <ele>310.3</ele>
        <time>2025-03-17T11:49:58Z</time>
      </trkpt>
      <trkpt lat="43.41922" lon="6.14456">
        <ele>310.2</ele>
        <time>2025-03-17T11:50:09Z</time>
      </trkpt>
      <trkpt lat="43.41926" lon="6.14444">
        <ele>310.2</ele>
        <time>2025-03-17T11:50:18Z</time>
      </trkpt>
      <trkpt lat="43.41929" lon="6.14433">
        <ele>310.4</ele>
        <time>2025-03-17T11:50:28Z</time>
      </trkpt>
      <trkpt lat="43.41932" lon="6.14421">
        <ele>310.7</ele>
        <time>2025-03-17T11:50:41Z</time>
      </trkpt>
      <trkpt lat="43.41935" lon="6.14409">
        <ele>311</ele>
        <time>2025-03-17T11:50:52Z</time>
      </trkpt>
      <trkpt lat="43.41936" lon="6.14396">
        <ele>311.1</ele>
        <time>2025-03-17T11:51:02Z</time>
      </trkpt>
      <trkpt lat="43.41937" lon="6.14383">
        <ele>311</ele>
        <time>2025-03-17T11:51:12Z</time>
      </trkpt>
      <trkpt lat="43.41939" lon="6.1437">
        <ele>310.9</ele>
        <time>2025-03-17T11:51:21Z</time>
      </trkpt>
      <trkpt lat="43.41939" lon="6.14357">
        <ele>310.8</ele>
        <time>2025-03-17T11:51:32Z</time>
      </trkpt>
      <trkpt lat="43.4194" lon="6.14344">
        <ele>310.6</ele>
        <time>2025-03-17T11:51:40Z</time>
      </trkpt>
      <trkpt lat="43.41941" lon="6.14331">
        <ele>310.6</ele>
        <time>2025-03-17T11:51:51Z</time>
      </trkpt>
      <trkpt lat="43.41943" lon="6.14319">
        <ele>310.6</ele>
        <time>2025-03-17T11:52:02Z</time>
      </trkpt>
      <trkpt lat="43.41946" lon="6.14306">
        <ele>310.4</ele>
        <time>2025-03-17T11:52:12Z</time>
      </trkpt>
      <trkpt lat="43.41949" lon="6.14293">
        <ele>310.2</ele>
        <time>2025-03-17T11:52:24Z</time>
      </trkpt>
      <trkpt lat="43.41952" lon="6.1428">
        <ele>309.9</ele>
        <time>2025-03-17T11:52:34Z</time>
      </trkpt>
      <trkpt lat="43.41957" lon="6.1427">
        <ele>309.7</ele>
        <time>2025-03-17T11:52:44Z</time>
      </trkpt>
      <trkpt lat="43.41957" lon="6.14257">
        <ele>309.4</ele>
        <time>2025-03-17T11:52:59Z</time>
      </trkpt>
      <trkpt lat="43.41961" lon="6.14245">
        <ele>309.4</ele>
        <time>2025-03-17T11:54:36Z</time>
      </trkpt>
      <trkpt lat="43.41969" lon="6.14239">
        <ele>309</ele>
        <time>2025-03-17T11:55:02Z</time>
      </trkpt>
      <trkpt lat="43.41978" lon="6.14234">
        <ele>308.4</ele>
        <time>2025-03-17T11:55:13Z</time>
      </trkpt>
      <trkpt lat="43.41987" lon="6.14228">
        <ele>308.1</ele>
        <time>2025-03-17T11:55:24Z</time>
      </trkpt>
      <trkpt lat="43.41994" lon="6.14219">
        <ele>308.3</ele>
        <time>2025-03-17T11:55:33Z</time>
      </trkpt>
      <trkpt lat="43.42002" lon="6.14213">
        <ele>307.9</ele>
        <time>2025-03-17T11:55:42Z</time>
      </trkpt>
      <trkpt lat="43.4201" lon="6.14208">
        <ele>307.7</ele>
        <time>2025-03-17T11:55:51Z</time>
      </trkpt>
      <trkpt lat="43.42019" lon="6.14202">
        <ele>307.3</ele>
        <time>2025-03-17T11:56:02Z</time>
      </trkpt>
      <trkpt lat="43.42028" lon="6.14198">
        <ele>307.1</ele>
        <time>2025-03-17T11:56:12Z</time>
      </trkpt>
      <trkpt lat="43.42036" lon="6.14191">
        <ele>307</ele>
        <time>2025-03-17T11:56:22Z</time>
      </trkpt>
      <trkpt lat="43.42045" lon="6.14185">
        <ele>306.5</ele>
        <time>2025-03-17T11:56:39Z</time>
      </trkpt>
      <trkpt lat="43.42052" lon="6.14179">
        <ele>306.1</ele>
        <time>2025-03-17T11:56:52Z</time>
      </trkpt>
      <trkpt lat="43.4206" lon="6.1417">
        <ele>305.6</ele>
        <time>2025-03-17T11:57:02Z</time>
      </trkpt>
      <trkpt lat="43.42068" lon="6.14164">
        <ele>305.3</ele>
        <time>2025-03-17T11:57:12Z</time>
      </trkpt>
      <trkpt lat="43.42075" lon="6.14157">
        <ele>305.4</ele>
        <time>2025-03-17T11:57:24Z</time>
      </trkpt>
      <trkpt lat="43.42082" lon="6.14149">
        <ele>305.3</ele>
        <time>2025-03-17T11:57:34Z</time>
      </trkpt>
      <trkpt lat="43.4209" lon="6.14142">
        <ele>305</ele>
        <time>2025-03-17T11:57:43Z</time>
      </trkpt>
      <trkpt lat="43.42098" lon="6.14136">
        <ele>304.9</ele>
        <time>2025-03-17T11:57:53Z</time>
      </trkpt>
      <trkpt lat="43.42106" lon="6.14129">
        <ele>304.8</ele>
        <time>2025-03-17T11:58:03Z</time>
      </trkpt>
      <trkpt lat="43.42114" lon="6.14124">
        <ele>305.2</ele>
        <time>2025-03-17T11:58:13Z</time>
      </trkpt>
      <trkpt lat="43.42124" lon="6.14125">
        <ele>304.3</ele>
        <time>2025-03-17T11:58:23Z</time>
      </trkpt>
      <trkpt lat="43.42134" lon="6.14127">
        <ele>304.2</ele>
        <time>2025-03-17T11:58:34Z</time>
      </trkpt>
      <trkpt lat="43.42143" lon="6.1413">
        <ele>304.6</ele>
        <time>2025-03-17T11:58:52Z</time>
      </trkpt>
      <trkpt lat="43.42151" lon="6.14136">
        <ele>304.4</ele>
        <time>2025-03-17T11:59:10Z</time>
      </trkpt>
      <trkpt lat="43.42158" lon="6.14146">
        <ele>304.5</ele>
        <time>2025-03-17T11:59:22Z</time>
      </trkpt>
      <trkpt lat="43.42164" lon="6.14156">
        <ele>303.7</ele>
        <time>2025-03-17T11:59:34Z</time>
      </trkpt>
      <trkpt lat="43.4217" lon="6.14166">
        <ele>302.8</ele>
        <time>2025-03-17T11:59:45Z</time>
      </trkpt>
      <trkpt lat="43.42176" lon="6.14177">
        <ele>302.7</ele>
        <time>2025-03-17T11:59:55Z</time>
      </trkpt>
      <trkpt lat="43.42182" lon="6.14187">
        <ele>301.9</ele>
        <time>2025-03-17T12:00:05Z</time>
      </trkpt>
      <trkpt lat="43.42187" lon="6.14198">
        <ele>301.1</ele>
        <time>2025-03-17T12:00:15Z</time>
      </trkpt>
      <trkpt lat="43.42193" lon="6.14207">
        <ele>300.5</ele>
        <time>2025-03-17T12:00:25Z</time>
      </trkpt>
      <trkpt lat="43.42201" lon="6.14213">
        <ele>299.9</ele>
        <time>2025-03-17T12:00:36Z</time>
      </trkpt>
      <trkpt lat="43.42208" lon="6.14223">
        <ele>299.7</ele>
        <time>2025-03-17T12:00:47Z</time>
      </trkpt>
      <trkpt lat="43.42217" lon="6.14227">
        <ele>299.7</ele>
        <time>2025-03-17T12:00:59Z</time>
      </trkpt>
      <trkpt lat="43.42226" lon="6.14229">
        <ele>299.6</ele>
        <time>2025-03-17T12:01:13Z</time>
      </trkpt>
      <trkpt lat="43.42235" lon="6.14226">
        <ele>299.7</ele>
        <time>2025-03-17T12:01:24Z</time>
      </trkpt>
      <trkpt lat="43.42245" lon="6.14224">
        <ele>299.7</ele>
        <time>2025-03-17T12:01:34Z</time>
      </trkpt>
      <trkpt lat="43.42254" lon="6.1422">
        <ele>299.7</ele>
        <time>2025-03-17T12:01:44Z</time>
      </trkpt>
      <trkpt lat="43.42262" lon="6.14214">
        <ele>300</ele>
        <time>2025-03-17T12:01:54Z</time>
      </trkpt>
      <trkpt lat="43.42269" lon="6.14206">
        <ele>300.6</ele>
        <time>2025-03-17T12:02:04Z</time>
      </trkpt>
      <trkpt lat="43.42278" lon="6.14202">
        <ele>301.8</ele>
        <time>2025-03-17T12:02:17Z</time>
      </trkpt>
      <trkpt lat="43.42288" lon="6.14203">
        <ele>302.7</ele>
        <time>2025-03-17T12:02:26Z</time>
      </trkpt>
      <trkpt lat="43.42297" lon="6.14207">
        <ele>303.3</ele>
        <time>2025-03-17T12:02:36Z</time>
      </trkpt>
      <trkpt lat="43.42306" lon="6.14213">
        <ele>303.8</ele>
        <time>2025-03-17T12:02:47Z</time>
      </trkpt>
      <trkpt lat="43.42311" lon="6.14222">
        <ele>303.7</ele>
        <time>2025-03-17T12:02:57Z</time>
      </trkpt>
      <trkpt lat="43.42316" lon="6.14233">
        <ele>303.2</ele>
        <time>2025-03-17T12:03:08Z</time>
      </trkpt>
      <trkpt lat="43.42319" lon="6.14245">
        <ele>302.9</ele>
        <time>2025-03-17T12:03:18Z</time>
      </trkpt>
      <trkpt lat="43.42321" lon="6.14258">
        <ele>302.7</ele>
        <time>2025-03-17T12:03:29Z</time>
      </trkpt>
      <trkpt lat="43.42325" lon="6.1427">
        <ele>302.5</ele>
        <time>2025-03-17T12:03:39Z</time>
      </trkpt>
      <trkpt lat="43.42328" lon="6.14282">
        <ele>302.5</ele>
        <time>2025-03-17T12:03:48Z</time>
      </trkpt>
      <trkpt lat="43.4233" lon="6.14295">
        <ele>302.6</ele>
        <time>2025-03-17T12:03:58Z</time>
      </trkpt>
      <trkpt lat="43.42333" lon="6.14307">
        <ele>302.8</ele>
        <time>2025-03-17T12:04:07Z</time>
      </trkpt>
      <trkpt lat="43.42337" lon="6.14319">
        <ele>303.4</ele>
        <time>2025-03-17T12:04:18Z</time>
      </trkpt>
      <trkpt lat="43.42339" lon="6.14332">
        <ele>303.9</ele>
        <time>2025-03-17T12:04:28Z</time>
      </trkpt>
      <trkpt lat="43.42343" lon="6.14344">
        <ele>304.7</ele>
        <time>2025-03-17T12:04:39Z</time>
      </trkpt>
      <trkpt lat="43.42347" lon="6.14356">
        <ele>305.3</ele>
        <time>2025-03-17T12:04:49Z</time>
      </trkpt>
      <trkpt lat="43.42352" lon="6.14368">
        <ele>305.7</ele>
        <time>2025-03-17T12:05:00Z</time>
      </trkpt>
      <trkpt lat="43.42356" lon="6.14379">
        <ele>306</ele>
        <time>2025-03-17T12:05:11Z</time>
      </trkpt>
      <trkpt lat="43.4236" lon="6.14391">
        <ele>306.4</ele>
        <time>2025-03-17T12:05:20Z</time>
      </trkpt>
      <trkpt lat="43.42366" lon="6.14401">
        <ele>306.8</ele>
        <time>2025-03-17T12:05:29Z</time>
      </trkpt>
      <trkpt lat="43.42371" lon="6.14412">
        <ele>307.4</ele>
        <time>2025-03-17T12:05:40Z</time>
      </trkpt>
      <trkpt lat="43.42375" lon="6.14424">
        <ele>308</ele>
        <time>2025-03-17T12:05:50Z</time>
      </trkpt>
      <trkpt lat="43.42381" lon="6.14433">
        <ele>308.7</ele>
        <time>2025-03-17T12:06:01Z</time>
      </trkpt>
      <trkpt lat="43.42389" lon="6.14438">
        <ele>309.2</ele>
        <time>2025-03-17T12:06:36Z</time>
      </trkpt>
      <trkpt lat="43.42399" lon="6.14438">
        <ele>309.1</ele>
        <time>2025-03-17T12:06:53Z</time>
      </trkpt>
      <trkpt lat="43.42407" lon="6.14445">
        <ele>308.4</ele>
        <time>2025-03-17T12:07:10Z</time>
      </trkpt>
      <trkpt lat="43.42414" lon="6.14453">
        <ele>307.3</ele>
        <time>2025-03-17T12:07:24Z</time>
      </trkpt>
      <trkpt lat="43.42421" lon="6.14462">
        <ele>306.6</ele>
        <time>2025-03-17T12:07:39Z</time>
      </trkpt>
      <trkpt lat="43.42429" lon="6.14468">
        <ele>305.7</ele>
        <time>2025-03-17T12:07:50Z</time>
      </trkpt>
      <trkpt lat="43.42438" lon="6.14467">
        <ele>305.5</ele>
        <time>2025-03-17T12:07:59Z</time>
      </trkpt>
      <trkpt lat="43.42448" lon="6.14465">
        <ele>305.3</ele>
        <time>2025-03-17T12:08:10Z</time>
      </trkpt>
      <trkpt lat="43.42457" lon="6.14463">
        <ele>304.8</ele>
        <time>2025-03-17T12:08:22Z</time>
      </trkpt>
      <trkpt lat="43.42466" lon="6.1446">
        <ele>304.5</ele>
        <time>2025-03-17T12:08:32Z</time>
      </trkpt>
      <trkpt lat="43.42471" lon="6.14449">
        <ele>304</ele>
        <time>2025-03-17T12:09:02Z</time>
      </trkpt>
      <trkpt lat="43.42464" lon="6.14458">
        <ele>303.9</ele>
        <time>2025-03-17T12:10:52Z</time>
      </trkpt>
      <trkpt lat="43.4247" lon="6.14448">
        <ele>303.5</ele>
        <time>2025-03-17T12:12:02Z</time>
      </trkpt>
      <trkpt lat="43.42467" lon="6.14436">
        <ele>303.5</ele>
        <time>2025-03-17T12:12:14Z</time>
      </trkpt>
      <trkpt lat="43.42463" lon="6.14424">
        <ele>303.3</ele>
        <time>2025-03-17T12:12:26Z</time>
      </trkpt>
      <trkpt lat="43.42463" lon="6.14411">
        <ele>302.7</ele>
        <time>2025-03-17T12:12:38Z</time>
      </trkpt>
      <trkpt lat="43.42463" lon="6.14399">
        <ele>302.5</ele>
        <time>2025-03-17T12:12:50Z</time>
      </trkpt>
      <trkpt lat="43.42461" lon="6.14385">
        <ele>302.2</ele>
        <time>2025-03-17T12:13:03Z</time>
      </trkpt>
      <trkpt lat="43.42459" lon="6.14372">
        <ele>302</ele>
        <time>2025-03-17T12:13:13Z</time>
      </trkpt>
      <trkpt lat="43.42458" lon="6.14359">
        <ele>301.9</ele>
        <time>2025-03-17T12:13:24Z</time>
      </trkpt>
      <trkpt lat="43.42457" lon="6.14346">
        <ele>301.4</ele>
        <time>2025-03-17T12:13:33Z</time>
      </trkpt>
      <trkpt lat="43.42458" lon="6.14334">
        <ele>301.2</ele>
        <time>2025-03-17T12:13:45Z</time>
      </trkpt>
      <trkpt lat="43.42462" lon="6.14322">
        <ele>300.8</ele>
        <time>2025-03-17T12:13:56Z</time>
      </trkpt>
      <trkpt lat="43.42469" lon="6.14312">
        <ele>300.6</ele>
        <time>2025-03-17T12:14:06Z</time>
      </trkpt>
      <trkpt lat="43.42476" lon="6.14301">
        <ele>300.7</ele>
        <time>2025-03-17T12:14:16Z</time>
      </trkpt>
      <trkpt lat="43.42485" lon="6.14297">
        <ele>301</ele>
        <time>2025-03-17T12:14:32Z</time>
      </trkpt>
      <trkpt lat="43.42494" lon="6.14298">
        <ele>301.8</ele>
        <time>2025-03-17T12:14:45Z</time>
      </trkpt>
      <trkpt lat="43.42503" lon="6.14301">
        <ele>302.4</ele>
        <time>2025-03-17T12:14:54Z</time>
      </trkpt>
      <trkpt lat="43.42512" lon="6.14307">
        <ele>302.9</ele>
        <time>2025-03-17T12:15:03Z</time>
      </trkpt>
      <trkpt lat="43.42519" lon="6.14315">
        <ele>303.3</ele>
        <time>2025-03-17T12:15:13Z</time>
      </trkpt>
      <trkpt lat="43.42525" lon="6.14325">
        <ele>303.6</ele>
        <time>2025-03-17T12:15:27Z</time>
      </trkpt>
      <trkpt lat="43.42535" lon="6.14326">
        <ele>303.5</ele>
        <time>2025-03-17T12:15:39Z</time>
      </trkpt>
      <trkpt lat="43.42544" lon="6.14323">
        <ele>303.1</ele>
        <time>2025-03-17T12:15:50Z</time>
      </trkpt>
      <trkpt lat="43.42552" lon="6.14317">
        <ele>302.6</ele>
        <time>2025-03-17T12:16:01Z</time>
      </trkpt>
      <trkpt lat="43.4256" lon="6.14309">
        <ele>302.5</ele>
        <time>2025-03-17T12:16:23Z</time>
      </trkpt>
      <trkpt lat="43.42566" lon="6.14299">
        <ele>302.3</ele>
        <time>2025-03-17T12:16:35Z</time>
      </trkpt>
      <trkpt lat="43.42568" lon="6.14286">
        <ele>302.6</ele>
        <time>2025-03-17T12:16:49Z</time>
      </trkpt>
      <trkpt lat="43.42567" lon="6.14273">
        <ele>303.3</ele>
        <time>2025-03-17T12:17:02Z</time>
      </trkpt>
      <trkpt lat="43.42567" lon="6.1426">
        <ele>303.9</ele>
        <time>2025-03-17T12:17:14Z</time>
      </trkpt>
      <trkpt lat="43.4257" lon="6.14248">
        <ele>304.1</ele>
        <time>2025-03-17T12:17:25Z</time>
      </trkpt>
      <trkpt lat="43.42573" lon="6.14235">
        <ele>303.4</ele>
        <time>2025-03-17T12:17:35Z</time>
      </trkpt>
      <trkpt lat="43.42574" lon="6.14222">
        <ele>302.9</ele>
        <time>2025-03-17T12:17:47Z</time>
      </trkpt>
      <trkpt lat="43.42572" lon="6.14209">
        <ele>302.8</ele>
        <time>2025-03-17T12:17:58Z</time>
      </trkpt>
      <trkpt lat="43.42572" lon="6.14195">
        <ele>303</ele>
        <time>2025-03-17T12:18:08Z</time>
      </trkpt>
      <trkpt lat="43.42568" lon="6.14183">
        <ele>303.2</ele>
        <time>2025-03-17T12:18:18Z</time>
      </trkpt>
      <trkpt lat="43.42566" lon="6.1417">
        <ele>303.5</ele>
        <time>2025-03-17T12:18:29Z</time>
      </trkpt>
      <trkpt lat="43.42566" lon="6.14158">
        <ele>303.9</ele>
        <time>2025-03-17T12:18:39Z</time>
      </trkpt>
      <trkpt lat="43.42566" lon="6.14145">
        <ele>304.3</ele>
        <time>2025-03-17T12:18:49Z</time>
      </trkpt>
      <trkpt lat="43.42568" lon="6.14132">
        <ele>304.2</ele>
        <time>2025-03-17T12:19:00Z</time>
      </trkpt>
      <trkpt lat="43.42571" lon="6.1412">
        <ele>304.3</ele>
        <time>2025-03-17T12:19:10Z</time>
      </trkpt>
      <trkpt lat="43.42575" lon="6.14108">
        <ele>304.9</ele>
        <time>2025-03-17T12:19:19Z</time>
      </trkpt>
      <trkpt lat="43.42577" lon="6.14097">
        <ele>305</ele>
        <time>2025-03-17T12:19:27Z</time>
      </trkpt>
      <trkpt lat="43.42581" lon="6.14085">
        <ele>305.1</ele>
        <time>2025-03-17T12:19:38Z</time>
      </trkpt>
      <trkpt lat="43.42585" lon="6.14073">
        <ele>305.1</ele>
        <time>2025-03-17T12:19:47Z</time>
      </trkpt>
      <trkpt lat="43.42591" lon="6.14063">
        <ele>305.3</ele>
        <time>2025-03-17T12:19:58Z</time>
      </trkpt>
      <trkpt lat="43.42596" lon="6.14051">
        <ele>305.7</ele>
        <time>2025-03-17T12:20:10Z</time>
      </trkpt>
      <trkpt lat="43.42599" lon="6.14038">
        <ele>306.2</ele>
        <time>2025-03-17T12:20:20Z</time>
      </trkpt>
      <trkpt lat="43.42597" lon="6.14025">
        <ele>306.6</ele>
        <time>2025-03-17T12:20:32Z</time>
      </trkpt>
      <trkpt lat="43.42599" lon="6.14013">
        <ele>306.6</ele>
        <time>2025-03-17T12:20:44Z</time>
      </trkpt>
      <trkpt lat="43.42603" lon="6.14002">
        <ele>307.2</ele>
        <time>2025-03-17T12:20:57Z</time>
      </trkpt>
      <trkpt lat="43.42608" lon="6.13991">
        <ele>307.6</ele>
        <time>2025-03-17T12:21:08Z</time>
      </trkpt>
      <trkpt lat="43.42612" lon="6.13979">
        <ele>308.1</ele>
        <time>2025-03-17T12:21:18Z</time>
      </trkpt>
      <trkpt lat="43.42615" lon="6.13965">
        <ele>308.3</ele>
        <time>2025-03-17T12:21:29Z</time>
      </trkpt>
      <trkpt lat="43.42615" lon="6.13952">
        <ele>309.2</ele>
        <time>2025-03-17T12:21:39Z</time>
      </trkpt>
      <trkpt lat="43.42616" lon="6.13939">
        <ele>309.6</ele>
        <time>2025-03-17T12:22:07Z</time>
      </trkpt>
      <trkpt lat="43.42618" lon="6.13927">
        <ele>310.7</ele>
        <time>2025-03-17T12:22:42Z</time>
      </trkpt>
      <trkpt lat="43.42622" lon="6.13915">
        <ele>310.8</ele>
        <time>2025-03-17T12:23:01Z</time>
      </trkpt>
      <trkpt lat="43.42626" lon="6.13902">
        <ele>310.7</ele>
        <time>2025-03-17T12:23:13Z</time>
      </trkpt>
      <trkpt lat="43.42632" lon="6.13892">
        <ele>311.7</ele>
        <time>2025-03-17T12:23:23Z</time>
      </trkpt>
      <trkpt lat="43.42638" lon="6.13881">
        <ele>312.2</ele>
        <time>2025-03-17T12:23:32Z</time>
      </trkpt>
      <trkpt lat="43.42641" lon="6.13869">
        <ele>312.1</ele>
        <time>2025-03-17T12:23:41Z</time>
      </trkpt>
      <trkpt lat="43.42646" lon="6.13858">
        <ele>313.5</ele>
        <time>2025-03-17T12:23:50Z</time>
      </trkpt>
      <trkpt lat="43.42648" lon="6.13845">
        <ele>313.4</ele>
        <time>2025-03-17T12:24:00Z</time>
      </trkpt>
      <trkpt lat="43.42647" lon="6.13831">
        <ele>313.9</ele>
        <time>2025-03-17T12:24:10Z</time>
      </trkpt>
      <trkpt lat="43.42647" lon="6.13818">
        <ele>314.7</ele>
        <time>2025-03-17T12:24:20Z</time>
      </trkpt>
      <trkpt lat="43.42645" lon="6.13806">
        <ele>314.9</ele>
        <time>2025-03-17T12:24:29Z</time>
      </trkpt>
      <trkpt lat="43.42643" lon="6.13793">
        <ele>315.4</ele>
        <time>2025-03-17T12:24:38Z</time>
      </trkpt>
      <trkpt lat="43.42642" lon="6.1378">
        <ele>315.7</ele>
        <time>2025-03-17T12:24:47Z</time>
      </trkpt>
      <trkpt lat="43.42642" lon="6.13767">
        <ele>316.1</ele>
        <time>2025-03-17T12:24:57Z</time>
      </trkpt>
      <trkpt lat="43.42642" lon="6.13754">
        <ele>316.2</ele>
        <time>2025-03-17T12:25:07Z</time>
      </trkpt>
      <trkpt lat="43.42642" lon="6.13741">
        <ele>316.1</ele>
        <time>2025-03-17T12:25:16Z</time>
      </trkpt>
      <trkpt lat="43.42643" lon="6.13727">
        <ele>316</ele>
        <time>2025-03-17T12:25:26Z</time>
      </trkpt>
      <trkpt lat="43.42642" lon="6.13714">
        <ele>315.7</ele>
        <time>2025-03-17T12:25:35Z</time>
      </trkpt>
      <trkpt lat="43.42641" lon="6.13701">
        <ele>315.8</ele>
        <time>2025-03-17T12:25:44Z</time>
      </trkpt>
      <trkpt lat="43.42642" lon="6.13687">
        <ele>316</ele>
        <time>2025-03-17T12:25:56Z</time>
      </trkpt>
      <trkpt lat="43.42643" lon="6.13674">
        <ele>315.7</ele>
        <time>2025-03-17T12:26:06Z</time>
      </trkpt>
      <trkpt lat="43.42643" lon="6.13661">
        <ele>315.1</ele>
        <time>2025-03-17T12:26:16Z</time>
      </trkpt>
      <trkpt lat="43.42642" lon="6.13648">
        <ele>314.8</ele>
        <time>2025-03-17T12:26:25Z</time>
      </trkpt>
      <trkpt lat="43.42641" lon="6.13635">
        <ele>314</ele>
        <time>2025-03-17T12:26:35Z</time>
      </trkpt>
      <trkpt lat="43.42642" lon="6.13622">
        <ele>313.3</ele>
        <time>2025-03-17T12:26:44Z</time>
      </trkpt>
      <trkpt lat="43.42642" lon="6.1361">
        <ele>312.8</ele>
        <time>2025-03-17T12:26:54Z</time>
      </trkpt>
      <trkpt lat="43.42643" lon="6.13597">
        <ele>312.8</ele>
        <time>2025-03-17T12:27:04Z</time>
      </trkpt>
      <trkpt lat="43.42643" lon="6.13584">
        <ele>310.9</ele>
        <time>2025-03-17T12:27:14Z</time>
      </trkpt>
      <trkpt lat="43.42644" lon="6.13571">
        <ele>310.3</ele>
        <time>2025-03-17T12:27:24Z</time>
      </trkpt>
      <trkpt lat="43.42648" lon="6.13559">
        <ele>308.8</ele>
        <time>2025-03-17T12:27:39Z</time>
      </trkpt>
      <trkpt lat="43.42648" lon="6.13546">
        <ele>307.8</ele>
        <time>2025-03-17T12:27:48Z</time>
      </trkpt>
      <trkpt lat="43.42652" lon="6.13533">
        <ele>308.4</ele>
        <time>2025-03-17T12:27:56Z</time>
      </trkpt>
      <trkpt lat="43.42655" lon="6.13521">
        <ele>307.6</ele>
        <time>2025-03-17T12:28:05Z</time>
      </trkpt>
      <trkpt lat="43.42661" lon="6.13511">
        <ele>306.9</ele>
        <time>2025-03-17T12:28:16Z</time>
      </trkpt>
      <trkpt lat="43.42668" lon="6.13501">
        <ele>306.3</ele>
        <time>2025-03-17T12:28:30Z</time>
      </trkpt>
      <trkpt lat="43.42673" lon="6.13489">
        <ele>305.3</ele>
        <time>2025-03-17T12:28:37Z</time>
      </trkpt>
      <trkpt lat="43.42674" lon="6.13477">
        <ele>304.3</ele>
        <time>2025-03-17T12:28:44Z</time>
      </trkpt>
      <trkpt lat="43.42678" lon="6.13464">
        <ele>303.4</ele>
        <time>2025-03-17T12:28:54Z</time>
      </trkpt>
      <trkpt lat="43.42677" lon="6.13451">
        <ele>302.9</ele>
        <time>2025-03-17T12:29:08Z</time>
      </trkpt>
      <trkpt lat="43.42682" lon="6.1344">
        <ele>301.7</ele>
        <time>2025-03-17T12:29:23Z</time>
      </trkpt>
      <trkpt lat="43.42688" lon="6.1343">
        <ele>300.7</ele>
        <time>2025-03-17T12:29:36Z</time>
      </trkpt>
      <trkpt lat="43.42698" lon="6.13432">
        <ele>299.3</ele>
        <time>2025-03-17T12:29:46Z</time>
      </trkpt>
      <trkpt lat="43.42707" lon="6.13437">
        <ele>298</ele>
        <time>2025-03-17T12:30:22Z</time>
      </trkpt>
      <trkpt lat="43.42714" lon="6.13443">
        <ele>296.3</ele>
        <time>2025-03-17T12:30:42Z</time>
      </trkpt>
      <trkpt lat="43.42722" lon="6.13451">
        <ele>295.4</ele>
        <time>2025-03-17T12:30:55Z</time>
      </trkpt>
      <trkpt lat="43.42728" lon="6.13462">
        <ele>294.3</ele>
        <time>2025-03-17T12:31:08Z</time>
      </trkpt>
      <trkpt lat="43.42731" lon="6.13473">
        <ele>293.4</ele>
        <time>2025-03-17T12:31:16Z</time>
      </trkpt>
      <trkpt lat="43.42736" lon="6.13485">
        <ele>292.7</ele>
        <time>2025-03-17T12:31:26Z</time>
      </trkpt>
      <trkpt lat="43.42741" lon="6.13496">
        <ele>292.1</ele>
        <time>2025-03-17T12:31:35Z</time>
      </trkpt>
      <trkpt lat="43.42748" lon="6.13505">
        <ele>291.6</ele>
        <time>2025-03-17T12:31:44Z</time>
      </trkpt>
      <trkpt lat="43.42756" lon="6.13512">
        <ele>290.7</ele>
        <time>2025-03-17T12:31:52Z</time>
      </trkpt>
      <trkpt lat="43.42763" lon="6.13521">
        <ele>289.8</ele>
        <time>2025-03-17T12:32:01Z</time>
      </trkpt>
      <trkpt lat="43.42771" lon="6.13528">
        <ele>288.7</ele>
        <time>2025-03-17T12:32:11Z</time>
      </trkpt>
      <trkpt lat="43.42777" lon="6.13537">
        <ele>287.2</ele>
        <time>2025-03-17T12:32:22Z</time>
      </trkpt>
      <trkpt lat="43.42781" lon="6.13549">
        <ele>286.1</ele>
        <time>2025-03-17T12:32:33Z</time>
      </trkpt>
      <trkpt lat="43.42781" lon="6.13562">
        <ele>284.9</ele>
        <time>2025-03-17T12:32:45Z</time>
      </trkpt>
      <trkpt lat="43.42778" lon="6.13574">
        <ele>283.7</ele>
        <time>2025-03-17T12:32:56Z</time>
      </trkpt>
      <trkpt lat="43.4278" lon="6.13587">
        <ele>282.4</ele>
        <time>2025-03-17T12:33:07Z</time>
      </trkpt>
      <trkpt lat="43.42787" lon="6.13595">
        <ele>281.2</ele>
        <time>2025-03-17T12:33:17Z</time>
      </trkpt>
      <trkpt lat="43.42796" lon="6.13593">
        <ele>279.6</ele>
        <time>2025-03-17T12:33:38Z</time>
      </trkpt>
      <trkpt lat="43.42802" lon="6.13583">
        <ele>278</ele>
        <time>2025-03-17T12:33:57Z</time>
      </trkpt>
      <trkpt lat="43.42807" lon="6.13571">
        <ele>277.2</ele>
        <time>2025-03-17T12:34:11Z</time>
      </trkpt>
      <trkpt lat="43.42811" lon="6.13559">
        <ele>276.9</ele>
        <time>2025-03-17T12:34:24Z</time>
      </trkpt>
      <trkpt lat="43.42814" lon="6.13548">
        <ele>275.7</ele>
        <time>2025-03-17T12:34:35Z</time>
      </trkpt>
      <trkpt lat="43.42818" lon="6.13536">
        <ele>274.5</ele>
        <time>2025-03-17T12:34:48Z</time>
      </trkpt>
      <trkpt lat="43.42819" lon="6.13523">
        <ele>272.7</ele>
        <time>2025-03-17T12:35:05Z</time>
      </trkpt>
      <trkpt lat="43.42816" lon="6.13511">
        <ele>270.9</ele>
        <time>2025-03-17T12:35:18Z</time>
      </trkpt>
      <trkpt lat="43.42816" lon="6.13499">
        <ele>269.1</ele>
        <time>2025-03-17T12:35:33Z</time>
      </trkpt>
      <trkpt lat="43.42812" lon="6.13487">
        <ele>267.5</ele>
        <time>2025-03-17T12:35:50Z</time>
      </trkpt>
      <trkpt lat="43.42811" lon="6.13475">
        <ele>266.2</ele>
        <time>2025-03-17T12:36:09Z</time>
      </trkpt>
      <trkpt lat="43.42811" lon="6.13462">
        <ele>264.3</ele>
        <time>2025-03-17T12:36:21Z</time>
      </trkpt>
      <trkpt lat="43.42811" lon="6.13449">
        <ele>262.5</ele>
        <time>2025-03-17T12:36:31Z</time>
      </trkpt>
      <trkpt lat="43.4281" lon="6.13437">
        <ele>261.4</ele>
        <time>2025-03-17T12:36:41Z</time>
      </trkpt>
      <trkpt lat="43.42805" lon="6.13426">
        <ele>260.7</ele>
        <time>2025-03-17T12:36:52Z</time>
      </trkpt>
      <trkpt lat="43.42806" lon="6.13414">
        <ele>259.3</ele>
        <time>2025-03-17T12:37:02Z</time>
      </trkpt>
      <trkpt lat="43.4281" lon="6.13402">
        <ele>257.9</ele>
        <time>2025-03-17T12:37:13Z</time>
      </trkpt>
      <trkpt lat="43.42813" lon="6.13389">
        <ele>256.7</ele>
        <time>2025-03-17T12:37:25Z</time>
      </trkpt>
      <trkpt lat="43.42818" lon="6.13378">
        <ele>255.1</ele>
        <time>2025-03-17T12:37:37Z</time>
      </trkpt>
      <trkpt lat="43.42825" lon="6.1337">
        <ele>253.1</ele>
        <time>2025-03-17T12:37:49Z</time>
      </trkpt>
      <trkpt lat="43.42831" lon="6.13358">
        <ele>251.2</ele>
        <time>2025-03-17T12:38:00Z</time>
      </trkpt>
      <trkpt lat="43.42827" lon="6.13347">
        <ele>250</ele>
        <time>2025-03-17T12:38:11Z</time>
      </trkpt>
      <trkpt lat="43.42819" lon="6.1334">
        <ele>249.4</ele>
        <time>2025-03-17T12:38:22Z</time>
      </trkpt>
      <trkpt lat="43.42812" lon="6.13331">
        <ele>248.8</ele>
        <time>2025-03-17T12:38:33Z</time>
      </trkpt>
      <trkpt lat="43.42808" lon="6.13319">
        <ele>246.9</ele>
        <time>2025-03-17T12:38:47Z</time>
      </trkpt>
      <trkpt lat="43.42807" lon="6.13306">
        <ele>245.3</ele>
        <time>2025-03-17T12:38:58Z</time>
      </trkpt>
      <trkpt lat="43.42807" lon="6.13294">
        <ele>243.6</ele>
        <time>2025-03-17T12:39:08Z</time>
      </trkpt>
      <trkpt lat="43.42808" lon="6.13281">
        <ele>241.9</ele>
        <time>2025-03-17T12:39:22Z</time>
      </trkpt>
      <trkpt lat="43.42808" lon="6.13268">
        <ele>239.9</ele>
        <time>2025-03-17T12:39:35Z</time>
      </trkpt>
      <trkpt lat="43.4281" lon="6.13256">
        <ele>238.3</ele>
        <time>2025-03-17T12:39:47Z</time>
      </trkpt>
      <trkpt lat="43.42814" lon="6.13245">
        <ele>236.3</ele>
        <time>2025-03-17T12:39:59Z</time>
      </trkpt>
      <trkpt lat="43.42821" lon="6.13236">
        <ele>235</ele>
        <time>2025-03-17T12:40:10Z</time>
      </trkpt>
      <trkpt lat="43.42831" lon="6.13233">
        <ele>233.3</ele>
        <time>2025-03-17T12:40:22Z</time>
      </trkpt>
      <trkpt lat="43.4284" lon="6.13228">
        <ele>232.3</ele>
        <time>2025-03-17T12:40:32Z</time>
      </trkpt>
      <trkpt lat="43.42848" lon="6.13223">
        <ele>231.2</ele>
        <time>2025-03-17T12:40:44Z</time>
      </trkpt>
      <trkpt lat="43.42857" lon="6.13218">
        <ele>230.1</ele>
        <time>2025-03-17T12:40:56Z</time>
      </trkpt>
      <trkpt lat="43.42866" lon="6.13214">
        <ele>228.4</ele>
        <time>2025-03-17T12:41:09Z</time>
      </trkpt>
      <trkpt lat="43.42875" lon="6.13214">
        <ele>224</ele>
        <time>2025-03-17T12:44:29Z</time>
      </trkpt>
      <trkpt lat="43.42882" lon="6.13205">
        <ele>222.9</ele>
        <time>2025-03-17T12:44:42Z</time>
      </trkpt>
      <trkpt lat="43.42889" lon="6.13197">
        <ele>222.1</ele>
        <time>2025-03-17T12:44:54Z</time>
      </trkpt>
      <trkpt lat="43.42896" lon="6.13189">
        <ele>220.9</ele>
        <time>2025-03-17T12:45:07Z</time>
      </trkpt>
      <trkpt lat="43.42906" lon="6.13189">
        <ele>218.5</ele>
        <time>2025-03-17T12:45:24Z</time>
      </trkpt>
      <trkpt lat="43.42915" lon="6.13193">
        <ele>217.1</ele>
        <time>2025-03-17T12:45:39Z</time>
      </trkpt>
      <trkpt lat="43.42922" lon="6.13202">
        <ele>215.3</ele>
        <time>2025-03-17T12:45:55Z</time>
      </trkpt>
      <trkpt lat="43.42929" lon="6.1321">
        <ele>213.7</ele>
        <time>2025-03-17T12:46:13Z</time>
      </trkpt>
      <trkpt lat="43.42935" lon="6.13221">
        <ele>211.6</ele>
        <time>2025-03-17T12:46:27Z</time>
      </trkpt>
      <trkpt lat="43.42941" lon="6.1323">
        <ele>210.4</ele>
        <time>2025-03-17T12:46:42Z</time>
      </trkpt>
      <trkpt lat="43.42944" lon="6.13243">
        <ele>208.7</ele>
        <time>2025-03-17T12:47:04Z</time>
      </trkpt>
      <trkpt lat="43.42951" lon="6.13252">
        <ele>207.2</ele>
        <time>2025-03-17T12:47:18Z</time>
      </trkpt>
      <trkpt lat="43.42957" lon="6.13262">
        <ele>206</ele>
        <time>2025-03-17T12:47:31Z</time>
      </trkpt>
      <trkpt lat="43.4296" lon="6.13275">
        <ele>204.3</ele>
        <time>2025-03-17T12:47:43Z</time>
      </trkpt>
      <trkpt lat="43.42966" lon="6.13287">
        <ele>203.5</ele>
        <time>2025-03-17T12:47:52Z</time>
      </trkpt>
      <trkpt lat="43.42968" lon="6.13299">
        <ele>202.2</ele>
        <time>2025-03-17T12:48:14Z</time>
      </trkpt>
      <trkpt lat="43.42967" lon="6.13313">
        <ele>201.5</ele>
        <time>2025-03-17T12:48:25Z</time>
      </trkpt>
      <trkpt lat="43.42968" lon="6.13325">
        <ele>200.6</ele>
        <time>2025-03-17T12:48:36Z</time>
      </trkpt>
      <trkpt lat="43.4297" lon="6.13338">
        <ele>199.6</ele>
        <time>2025-03-17T12:48:47Z</time>
      </trkpt>
      <trkpt lat="43.42974" lon="6.13349">
        <ele>199.1</ele>
        <time>2025-03-17T12:48:56Z</time>
      </trkpt>
      <trkpt lat="43.42979" lon="6.1336">
        <ele>197.8</ele>
        <time>2025-03-17T12:49:07Z</time>
      </trkpt>
      <trkpt lat="43.42983" lon="6.13371">
        <ele>196.4</ele>
        <time>2025-03-17T12:49:20Z</time>
      </trkpt>
      <trkpt lat="43.42985" lon="6.13384">
        <ele>195.9</ele>
        <time>2025-03-17T12:49:31Z</time>
      </trkpt>
      <trkpt lat="43.42981" lon="6.13395">
        <ele>195</ele>
        <time>2025-03-17T12:49:40Z</time>
      </trkpt>
      <trkpt lat="43.4298" lon="6.13408">
        <ele>194.4</ele>
        <time>2025-03-17T12:49:49Z</time>
      </trkpt>
      <trkpt lat="43.42989" lon="6.13418">
        <ele>194.3</ele>
        <time>2025-03-17T12:50:00Z</time>
      </trkpt>
      <trkpt lat="43.42992" lon="6.1343">
        <ele>194</ele>
        <time>2025-03-17T12:50:10Z</time>
      </trkpt>
      <trkpt lat="43.42986" lon="6.13439">
        <ele>193.8</ele>
        <time>2025-03-17T12:50:44Z</time>
      </trkpt>
      <trkpt lat="43.42986" lon="6.13452">
        <ele>192.8</ele>
        <time>2025-03-17T12:50:53Z</time>
      </trkpt>
      <trkpt lat="43.42986" lon="6.13465">
        <ele>193.7</ele>
        <time>2025-03-17T12:51:04Z</time>
      </trkpt>
      <trkpt lat="43.42989" lon="6.13478">
        <ele>192.7</ele>
        <time>2025-03-17T12:51:22Z</time>
      </trkpt>
      <trkpt lat="43.42989" lon="6.1349">
        <ele>192.4</ele>
        <time>2025-03-17T12:51:36Z</time>
      </trkpt>
      <trkpt lat="43.4299" lon="6.13504">
        <ele>192.2</ele>
        <time>2025-03-17T12:51:47Z</time>
      </trkpt>
      <trkpt lat="43.42989" lon="6.13517">
        <ele>192.2</ele>
        <time>2025-03-17T12:51:54Z</time>
      </trkpt>
      <trkpt lat="43.4299" lon="6.13531">
        <ele>191.5</ele>
        <time>2025-03-17T12:52:02Z</time>
      </trkpt>
      <trkpt lat="43.4299" lon="6.13545">
        <ele>190.8</ele>
        <time>2025-03-17T12:52:10Z</time>
      </trkpt>
      <trkpt lat="43.4299" lon="6.13557">
        <ele>190.1</ele>
        <time>2025-03-17T12:52:19Z</time>
      </trkpt>
      <trkpt lat="43.42997" lon="6.13567">
        <ele>190.5</ele>
        <time>2025-03-17T12:52:29Z</time>
      </trkpt>
      <trkpt lat="43.42998" lon="6.1358">
        <ele>191.1</ele>
        <time>2025-03-17T12:52:38Z</time>
      </trkpt>
      <trkpt lat="43.43" lon="6.13592">
        <ele>190.3</ele>
        <time>2025-03-17T12:52:49Z</time>
      </trkpt>
      <trkpt lat="43.43003" lon="6.13604">
        <ele>190.5</ele>
        <time>2025-03-17T12:52:59Z</time>
      </trkpt>
      <trkpt lat="43.43003" lon="6.13617">
        <ele>190</ele>
        <time>2025-03-17T12:53:09Z</time>
      </trkpt>
      <trkpt lat="43.43004" lon="6.1363">
        <ele>190.6</ele>
        <time>2025-03-17T12:53:20Z</time>
      </trkpt>
      <trkpt lat="43.43007" lon="6.13642">
        <ele>190.2</ele>
        <time>2025-03-17T12:53:33Z</time>
      </trkpt>
      <trkpt lat="43.43011" lon="6.13653">
        <ele>190.4</ele>
        <time>2025-03-17T12:53:46Z</time>
      </trkpt>
      <trkpt lat="43.43016" lon="6.13664">
        <ele>190.4</ele>
        <time>2025-03-17T12:53:57Z</time>
      </trkpt>
      <trkpt lat="43.43022" lon="6.13673">
        <ele>189.6</ele>
        <time>2025-03-17T12:54:07Z</time>
      </trkpt>
      <trkpt lat="43.4303" lon="6.13681">
        <ele>189.4</ele>
        <time>2025-03-17T12:54:20Z</time>
      </trkpt>
      <trkpt lat="43.43032" lon="6.13693">
        <ele>189</ele>
        <time>2025-03-17T12:54:43Z</time>
      </trkpt>
      <trkpt lat="43.43037" lon="6.13704">
        <ele>188.4</ele>
        <time>2025-03-17T12:55:02Z</time>
      </trkpt>
      <trkpt lat="43.43042" lon="6.13715">
        <ele>188.1</ele>
        <time>2025-03-17T12:55:15Z</time>
      </trkpt>
      <trkpt lat="43.43045" lon="6.13727">
        <ele>187.8</ele>
        <time>2025-03-17T12:55:26Z</time>
      </trkpt>
      <trkpt lat="43.43049" lon="6.13738">
        <ele>187.8</ele>
        <time>2025-03-17T12:55:38Z</time>
      </trkpt>
      <trkpt lat="43.43054" lon="6.1375">
        <ele>187.9</ele>
        <time>2025-03-17T12:55:54Z</time>
      </trkpt>
      <trkpt lat="43.43058" lon="6.13762">
        <ele>187.7</ele>
        <time>2025-03-17T12:56:06Z</time>
      </trkpt>
      <trkpt lat="43.43061" lon="6.13774">
        <ele>187.9</ele>
        <time>2025-03-17T12:56:16Z</time>
      </trkpt>
      <trkpt lat="43.43065" lon="6.13785">
        <ele>188.2</ele>
        <time>2025-03-17T12:56:27Z</time>
      </trkpt>
      <trkpt lat="43.43069" lon="6.13797">
        <ele>188.2</ele>
        <time>2025-03-17T12:56:47Z</time>
      </trkpt>
      <trkpt lat="43.4307" lon="6.1381">
        <ele>188</ele>
        <time>2025-03-17T12:56:59Z</time>
      </trkpt>
      <trkpt lat="43.43071" lon="6.13823">
        <ele>188.4</ele>
        <time>2025-03-17T12:57:10Z</time>
      </trkpt>
      <trkpt lat="43.43073" lon="6.13835">
        <ele>188.7</ele>
        <time>2025-03-17T12:57:20Z</time>
      </trkpt>
      <trkpt lat="43.43075" lon="6.13848">
        <ele>189.1</ele>
        <time>2025-03-17T12:57:31Z</time>
      </trkpt>
      <trkpt lat="43.43078" lon="6.13861">
        <ele>189.5</ele>
        <time>2025-03-17T12:57:50Z</time>
      </trkpt>
      <trkpt lat="43.43078" lon="6.13874">
        <ele>189.6</ele>
        <time>2025-03-17T12:58:02Z</time>
      </trkpt>
      <trkpt lat="43.43077" lon="6.13887">
        <ele>190</ele>
        <time>2025-03-17T12:58:16Z</time>
      </trkpt>
      <trkpt lat="43.43076" lon="6.139">
        <ele>190.3</ele>
        <time>2025-03-17T12:58:27Z</time>
      </trkpt>
      <trkpt lat="43.43079" lon="6.13912">
        <ele>190.7</ele>
        <time>2025-03-17T12:58:35Z</time>
      </trkpt>
      <trkpt lat="43.43087" lon="6.1392">
        <ele>191.2</ele>
        <time>2025-03-17T12:58:45Z</time>
      </trkpt>
      <trkpt lat="43.43089" lon="6.13932">
        <ele>191.4</ele>
        <time>2025-03-17T12:58:57Z</time>
      </trkpt>
      <trkpt lat="43.43093" lon="6.13943">
        <ele>191.6</ele>
        <time>2025-03-17T12:59:11Z</time>
      </trkpt>
      <trkpt lat="43.43097" lon="6.13955">
        <ele>191.6</ele>
        <time>2025-03-17T12:59:22Z</time>
      </trkpt>
      <trkpt lat="43.43103" lon="6.13966">
        <ele>191.2</ele>
        <time>2025-03-17T12:59:54Z</time>
      </trkpt>
      <trkpt lat="43.43106" lon="6.1398">
        <ele>190.8</ele>
        <time>2025-03-17T13:00:06Z</time>
      </trkpt>
      <trkpt lat="43.43108" lon="6.13992">
        <ele>190.3</ele>
        <time>2025-03-17T13:00:16Z</time>
      </trkpt>
      <trkpt lat="43.43106" lon="6.14006">
        <ele>189.9</ele>
        <time>2025-03-17T13:00:26Z</time>
      </trkpt>
      <trkpt lat="43.43107" lon="6.14019">
        <ele>189.4</ele>
        <time>2025-03-17T13:00:36Z</time>
      </trkpt>
      <trkpt lat="43.43107" lon="6.14032">
        <ele>188.9</ele>
        <time>2025-03-17T13:00:46Z</time>
      </trkpt>
      <trkpt lat="43.43111" lon="6.14044">
        <ele>188.6</ele>
        <time>2025-03-17T13:00:55Z</time>
      </trkpt>
      <trkpt lat="43.43113" lon="6.14056">
        <ele>188.2</ele>
        <time>2025-03-17T13:01:06Z</time>
      </trkpt>
      <trkpt lat="43.43113" lon="6.14069">
        <ele>188</ele>
        <time>2025-03-17T13:01:15Z</time>
      </trkpt>
      <trkpt lat="43.43119" lon="6.14079">
        <ele>187.8</ele>
        <time>2025-03-17T13:01:26Z</time>
      </trkpt>
      <trkpt lat="43.43119" lon="6.14092">
        <ele>187.5</ele>
        <time>2025-03-17T13:01:36Z</time>
      </trkpt>
      <trkpt lat="43.43118" lon="6.14105">
        <ele>186.9</ele>
        <time>2025-03-17T13:01:47Z</time>
      </trkpt>
      <trkpt lat="43.43118" lon="6.14118">
        <ele>186.3</ele>
        <time>2025-03-17T13:02:00Z</time>
      </trkpt>
      <trkpt lat="43.43117" lon="6.14131">
        <ele>185.8</ele>
        <time>2025-03-17T13:02:13Z</time>
      </trkpt>
      <trkpt lat="43.4312" lon="6.14143">
        <ele>184.9</ele>
        <time>2025-03-17T13:02:28Z</time>
      </trkpt>
      <trkpt lat="43.43122" lon="6.14156">
        <ele>183.9</ele>
        <time>2025-03-17T13:02:42Z</time>
      </trkpt>
      <trkpt lat="43.43124" lon="6.14169">
        <ele>182.9</ele>
        <time>2025-03-17T13:02:54Z</time>
      </trkpt>
      <trkpt lat="43.43128" lon="6.1418">
        <ele>181.7</ele>
        <time>2025-03-17T13:03:07Z</time>
      </trkpt>
      <trkpt lat="43.43135" lon="6.14189">
        <ele>180.5</ele>
        <time>2025-03-17T13:03:23Z</time>
      </trkpt>
      <trkpt lat="43.43142" lon="6.14196">
        <ele>178.9</ele>
        <time>2025-03-17T13:03:43Z</time>
      </trkpt>
      <trkpt lat="43.43143" lon="6.14209">
        <ele>178.8</ele>
        <time>2025-03-17T13:04:37Z</time>
      </trkpt>
      <trkpt lat="43.43139" lon="6.1422">
        <ele>179.1</ele>
        <time>2025-03-17T13:05:00Z</time>
      </trkpt>
      <trkpt lat="43.43145" lon="6.14229">
        <ele>181.3</ele>
        <time>2025-03-17T13:05:36Z</time>
      </trkpt>
      <trkpt lat="43.43152" lon="6.14238">
        <ele>180.9</ele>
        <time>2025-03-17T13:05:48Z</time>
      </trkpt>
      <trkpt lat="43.43143" lon="6.14239">
        <ele>180.3</ele>
        <time>2025-03-17T13:08:15Z</time>
      </trkpt>
      <trkpt lat="43.43135" lon="6.14232">
        <ele>178.9</ele>
        <time>2025-03-17T13:08:59Z</time>
      </trkpt>
      <trkpt lat="43.43127" lon="6.14227">
        <ele>178.9</ele>
        <time>2025-03-17T13:10:01Z</time>
      </trkpt>
      <trkpt lat="43.43133" lon="6.14236">
        <ele>178.7</ele>
        <time>2025-03-17T13:10:50Z</time>
      </trkpt>
      <trkpt lat="43.4313" lon="6.14248">
        <ele>178.7</ele>
        <time>2025-03-17T13:11:17Z</time>
      </trkpt>
      <trkpt lat="43.43127" lon="6.1426">
        <ele>178.8</ele>
        <time>2025-03-17T13:12:06Z</time>
      </trkpt>
      <trkpt lat="43.43127" lon="6.14272">
        <ele>178.6</ele>
        <time>2025-03-17T13:12:17Z</time>
      </trkpt>
      <trkpt lat="43.43126" lon="6.14285">
        <ele>178.6</ele>
        <time>2025-03-17T13:12:27Z</time>
      </trkpt>
      <trkpt lat="43.43123" lon="6.14298">
        <ele>178.8</ele>
        <time>2025-03-17T13:12:40Z</time>
      </trkpt>
      <trkpt lat="43.4312" lon="6.14311">
        <ele>178.8</ele>
        <time>2025-03-17T13:12:49Z</time>
      </trkpt>
      <trkpt lat="43.43115" lon="6.14322">
        <ele>178.9</ele>
        <time>2025-03-17T13:13:01Z</time>
      </trkpt>
      <trkpt lat="43.4311" lon="6.14334">
        <ele>179</ele>
        <time>2025-03-17T13:15:04Z</time>
      </trkpt>
      <trkpt lat="43.43112" lon="6.14347">
        <ele>179.1</ele>
        <time>2025-03-17T13:15:19Z</time>
      </trkpt>
      <trkpt lat="43.43113" lon="6.14359">
        <ele>179.1</ele>
        <time>2025-03-17T13:15:28Z</time>
      </trkpt>
      <trkpt lat="43.43115" lon="6.14372">
        <ele>179.2</ele>
        <time>2025-03-17T13:15:37Z</time>
      </trkpt>
      <trkpt lat="43.43118" lon="6.14385">
        <ele>179.4</ele>
        <time>2025-03-17T13:15:46Z</time>
      </trkpt>
      <trkpt lat="43.43122" lon="6.14398">
        <ele>179.4</ele>
        <time>2025-03-17T13:15:53Z</time>
      </trkpt>
      <trkpt lat="43.43124" lon="6.14411">
        <ele>179.4</ele>
        <time>2025-03-17T13:16:02Z</time>
      </trkpt>
      <trkpt lat="43.43132" lon="6.14419">
        <ele>179.1</ele>
        <time>2025-03-17T13:16:10Z</time>
      </trkpt>
      <trkpt lat="43.43136" lon="6.1443">
        <ele>178.7</ele>
        <time>2025-03-17T13:16:20Z</time>
      </trkpt>
      <trkpt lat="43.4314" lon="6.14442">
        <ele>178.7</ele>
        <time>2025-03-17T13:16:29Z</time>
      </trkpt>
      <trkpt lat="43.43146" lon="6.14452">
        <ele>178.8</ele>
        <time>2025-03-17T13:16:42Z</time>
      </trkpt>
      <trkpt lat="43.43153" lon="6.14462">
        <ele>179.2</ele>
        <time>2025-03-17T13:16:50Z</time>
      </trkpt>
      <trkpt lat="43.4316" lon="6.14472">
        <ele>179.6</ele>
        <time>2025-03-17T13:17:00Z</time>
      </trkpt>
      <trkpt lat="43.43167" lon="6.14482">
        <ele>179.8</ele>
        <time>2025-03-17T13:17:14Z</time>
      </trkpt>
      <trkpt lat="43.43175" lon="6.14486">
        <ele>179.6</ele>
        <time>2025-03-17T13:17:49Z</time>
      </trkpt>
      <trkpt lat="43.43179" lon="6.14498">
        <ele>179</ele>
        <time>2025-03-17T13:21:24Z</time>
      </trkpt>
      <trkpt lat="43.43181" lon="6.1451">
        <ele>178.9</ele>
        <time>2025-03-17T13:21:36Z</time>
      </trkpt>
      <trkpt lat="43.43186" lon="6.14521">
        <ele>178.9</ele>
        <time>2025-03-17T13:21:49Z</time>
      </trkpt>
      <trkpt lat="43.43193" lon="6.14531">
        <ele>178.7</ele>
        <time>2025-03-17T13:21:59Z</time>
      </trkpt>
      <trkpt lat="43.43199" lon="6.1454">
        <ele>178.6</ele>
        <time>2025-03-17T13:22:17Z</time>
      </trkpt>
      <trkpt lat="43.43204" lon="6.14552">
        <ele>178.5</ele>
        <time>2025-03-17T13:22:26Z</time>
      </trkpt>
      <trkpt lat="43.43207" lon="6.14564">
        <ele>178.6</ele>
        <time>2025-03-17T13:22:38Z</time>
      </trkpt>
      <trkpt lat="43.43209" lon="6.14577">
        <ele>178.9</ele>
        <time>2025-03-17T13:22:49Z</time>
      </trkpt>
      <trkpt lat="43.43215" lon="6.14589">
        <ele>179</ele>
        <time>2025-03-17T13:23:00Z</time>
      </trkpt>
      <trkpt lat="43.43219" lon="6.146">
        <ele>179.1</ele>
        <time>2025-03-17T13:23:12Z</time>
      </trkpt>
      <trkpt lat="43.43223" lon="6.14612">
        <ele>179.2</ele>
        <time>2025-03-17T13:23:26Z</time>
      </trkpt>
      <trkpt lat="43.43224" lon="6.14625">
        <ele>179.2</ele>
        <time>2025-03-17T13:23:36Z</time>
      </trkpt>
      <trkpt lat="43.43225" lon="6.14638">
        <ele>179.5</ele>
        <time>2025-03-17T13:23:46Z</time>
      </trkpt>
      <trkpt lat="43.43226" lon="6.14651">
        <ele>180.3</ele>
        <time>2025-03-17T13:23:57Z</time>
      </trkpt>
      <trkpt lat="43.43228" lon="6.14664">
        <ele>180.4</ele>
        <time>2025-03-17T13:24:08Z</time>
      </trkpt>
      <trkpt lat="43.43229" lon="6.14677">
        <ele>180.3</ele>
        <time>2025-03-17T13:24:19Z</time>
      </trkpt>
      <trkpt lat="43.43231" lon="6.14689">
        <ele>180.3</ele>
        <time>2025-03-17T13:24:33Z</time>
      </trkpt>
      <trkpt lat="43.43234" lon="6.14701">
        <ele>180.4</ele>
        <time>2025-03-17T13:24:44Z</time>
      </trkpt>
      <trkpt lat="43.43239" lon="6.14712">
        <ele>180.2</ele>
        <time>2025-03-17T13:24:56Z</time>
      </trkpt>
      <trkpt lat="43.43243" lon="6.14725">
        <ele>179.4</ele>
        <time>2025-03-17T13:25:09Z</time>
      </trkpt>
      <trkpt lat="43.43247" lon="6.14737">
        <ele>178.8</ele>
        <time>2025-03-17T13:25:19Z</time>
      </trkpt>
      <trkpt lat="43.43253" lon="6.14749">
        <ele>178.4</ele>
        <time>2025-03-17T13:25:31Z</time>
      </trkpt>
      <trkpt lat="43.43256" lon="6.14761">
        <ele>178.5</ele>
        <time>2025-03-17T13:25:48Z</time>
      </trkpt>
      <trkpt lat="43.43256" lon="6.14773">
        <ele>179</ele>
        <time>2025-03-17T13:26:01Z</time>
      </trkpt>
      <trkpt lat="43.43253" lon="6.14785">
        <ele>179.5</ele>
        <time>2025-03-17T13:26:10Z</time>
      </trkpt>
      <trkpt lat="43.43253" lon="6.14798">
        <ele>179.4</ele>
        <time>2025-03-17T13:26:22Z</time>
      </trkpt>
      <trkpt lat="43.43255" lon="6.1481">
        <ele>178.5</ele>
        <time>2025-03-17T13:26:38Z</time>
      </trkpt>
      <trkpt lat="43.43256" lon="6.14823">
        <ele>178.3</ele>
        <time>2025-03-17T13:26:50Z</time>
      </trkpt>
      <trkpt lat="43.4326" lon="6.14835">
        <ele>178.4</ele>
        <time>2025-03-17T13:27:04Z</time>
      </trkpt>
      <trkpt lat="43.43268" lon="6.14838">
        <ele>178.7</ele>
        <time>2025-03-17T13:27:18Z</time>
      </trkpt>
      <trkpt lat="43.43277" lon="6.14835">
        <ele>178.6</ele>
        <time>2025-03-17T13:27:36Z</time>
      </trkpt>
      <trkpt lat="43.43284" lon="6.14844">
        <ele>176.3</ele>
        <time>2025-03-17T13:28:21Z</time>
      </trkpt>
      <trkpt lat="43.43286" lon="6.14856">
        <ele>175.2</ele>
        <time>2025-03-17T13:28:53Z</time>
      </trkpt>
      <trkpt lat="43.4329" lon="6.14868">
        <ele>174.9</ele>
        <time>2025-03-17T13:29:06Z</time>
      </trkpt>
      <trkpt lat="43.43292" lon="6.1488">
        <ele>174.8</ele>
        <time>2025-03-17T13:29:16Z</time>
      </trkpt>
      <trkpt lat="43.43297" lon="6.14891">
        <ele>175.1</ele>
        <time>2025-03-17T13:29:26Z</time>
      </trkpt>
      <trkpt lat="43.43302" lon="6.14903">
        <ele>175.4</ele>
        <time>2025-03-17T13:29:35Z</time>
      </trkpt>
      <trkpt lat="43.43309" lon="6.14914">
        <ele>175.5</ele>
        <time>2025-03-17T13:29:55Z</time>
      </trkpt>
      <trkpt lat="43.43311" lon="6.14927">
        <ele>175.4</ele>
        <time>2025-03-17T13:30:05Z</time>
      </trkpt>
      <trkpt lat="43.43309" lon="6.1494">
        <ele>175.4</ele>
        <time>2025-03-17T13:30:16Z</time>
      </trkpt>
      <trkpt lat="43.43314" lon="6.14952">
        <ele>175.3</ele>
        <time>2025-03-17T13:30:29Z</time>
      </trkpt>
      <trkpt lat="43.43322" lon="6.14959">
        <ele>174.9</ele>
        <time>2025-03-17T13:30:38Z</time>
      </trkpt>
      <trkpt lat="43.43327" lon="6.14969">
        <ele>174.3</ele>
        <time>2025-03-17T13:30:49Z</time>
      </trkpt>
      <trkpt lat="43.43333" lon="6.14979">
        <ele>174.2</ele>
        <time>2025-03-17T13:30:58Z</time>
      </trkpt>
      <trkpt lat="43.43338" lon="6.14991">
        <ele>174.7</ele>
        <time>2025-03-17T13:31:09Z</time>
      </trkpt>
      <trkpt lat="43.43345" lon="6.14999">
        <ele>175.5</ele>
        <time>2025-03-17T13:31:19Z</time>
      </trkpt>
      <trkpt lat="43.43351" lon="6.15009">
        <ele>176</ele>
        <time>2025-03-17T13:31:28Z</time>
      </trkpt>
      <trkpt lat="43.43357" lon="6.1502">
        <ele>176.1</ele>
        <time>2025-03-17T13:31:38Z</time>
      </trkpt>
      <trkpt lat="43.43362" lon="6.1503">
        <ele>176.1</ele>
        <time>2025-03-17T13:31:49Z</time>
      </trkpt>
      <trkpt lat="43.43367" lon="6.15041">
        <ele>176</ele>
        <time>2025-03-17T13:32:02Z</time>
      </trkpt>
      <trkpt lat="43.4337" lon="6.15053">
        <ele>176.1</ele>
        <time>2025-03-17T13:32:11Z</time>
      </trkpt>
      <trkpt lat="43.43373" lon="6.15066">
        <ele>176.2</ele>
        <time>2025-03-17T13:32:21Z</time>
      </trkpt>
      <trkpt lat="43.43376" lon="6.15079">
        <ele>176.2</ele>
        <time>2025-03-17T13:32:33Z</time>
      </trkpt>
      <trkpt lat="43.43379" lon="6.15091">
        <ele>176</ele>
        <time>2025-03-17T13:32:43Z</time>
      </trkpt>
      <trkpt lat="43.43383" lon="6.15103">
        <ele>175.5</ele>
        <time>2025-03-17T13:32:54Z</time>
      </trkpt>
      <trkpt lat="43.43389" lon="6.15113">
        <ele>175.4</ele>
        <time>2025-03-17T13:33:05Z</time>
      </trkpt>
      <trkpt lat="43.43395" lon="6.15124">
        <ele>175.2</ele>
        <time>2025-03-17T13:33:16Z</time>
      </trkpt>
      <trkpt lat="43.43402" lon="6.15133">
        <ele>175.2</ele>
        <time>2025-03-17T13:33:26Z</time>
      </trkpt>
      <trkpt lat="43.43409" lon="6.15141">
        <ele>175.8</ele>
        <time>2025-03-17T13:33:36Z</time>
      </trkpt>
      <trkpt lat="43.43415" lon="6.15151">
        <ele>175.9</ele>
        <time>2025-03-17T13:33:47Z</time>
      </trkpt>
      <trkpt lat="43.4342" lon="6.15162">
        <ele>176</ele>
        <time>2025-03-17T13:33:58Z</time>
      </trkpt>
      <trkpt lat="43.43422" lon="6.15175">
        <ele>176</ele>
        <time>2025-03-17T13:34:18Z</time>
      </trkpt>
      <trkpt lat="43.43431" lon="6.15181">
        <ele>176</ele>
        <time>2025-03-17T13:34:28Z</time>
      </trkpt>
      <trkpt lat="43.43437" lon="6.15189">
        <ele>176</ele>
        <time>2025-03-17T13:34:40Z</time>
      </trkpt>
      <trkpt lat="43.43445" lon="6.15197">
        <ele>176</ele>
        <time>2025-03-17T13:34:53Z</time>
      </trkpt>
      <trkpt lat="43.43452" lon="6.15205">
        <ele>175.7</ele>
        <time>2025-03-17T13:35:03Z</time>
      </trkpt>
      <trkpt lat="43.4346" lon="6.15212">
        <ele>175.9</ele>
        <time>2025-03-17T13:35:13Z</time>
      </trkpt>
      <trkpt lat="43.43469" lon="6.15215">
        <ele>176.2</ele>
        <time>2025-03-17T13:35:24Z</time>
      </trkpt>
      <trkpt lat="43.43478" lon="6.15218">
        <ele>175.9</ele>
        <time>2025-03-17T13:35:35Z</time>
      </trkpt>
      <trkpt lat="43.43487" lon="6.15222">
        <ele>175.3</ele>
        <time>2025-03-17T13:35:45Z</time>
      </trkpt>
      <trkpt lat="43.43496" lon="6.15227">
        <ele>175.5</ele>
        <time>2025-03-17T13:35:58Z</time>
      </trkpt>
      <trkpt lat="43.43505" lon="6.1523">
        <ele>175.4</ele>
        <time>2025-03-17T13:36:10Z</time>
      </trkpt>
      <trkpt lat="43.43513" lon="6.15236">
        <ele>174.6</ele>
        <time>2025-03-17T13:36:21Z</time>
      </trkpt>
      <trkpt lat="43.43521" lon="6.15242">
        <ele>175.8</ele>
        <time>2025-03-17T13:36:31Z</time>
      </trkpt>
      <trkpt lat="43.4353" lon="6.15242">
        <ele>175.7</ele>
        <time>2025-03-17T13:36:45Z</time>
      </trkpt>
      <trkpt lat="43.43538" lon="6.15235">
        <ele>175.9</ele>
        <time>2025-03-17T13:37:14Z</time>
      </trkpt>
      <trkpt lat="43.43545" lon="6.15227">
        <ele>176.1</ele>
        <time>2025-03-17T13:37:27Z</time>
      </trkpt>
      <trkpt lat="43.43551" lon="6.15216">
        <ele>176.1</ele>
        <time>2025-03-17T13:37:40Z</time>
      </trkpt>
      <trkpt lat="43.43551" lon="6.15203">
        <ele>176.3</ele>
        <time>2025-03-17T13:38:08Z</time>
      </trkpt>
      <trkpt lat="43.43553" lon="6.1519">
        <ele>176.1</ele>
        <time>2025-03-17T13:38:19Z</time>
      </trkpt>
      <trkpt lat="43.43556" lon="6.15178">
        <ele>176.1</ele>
        <time>2025-03-17T13:38:31Z</time>
      </trkpt>
      <trkpt lat="43.4356" lon="6.15167">
        <ele>176.3</ele>
        <time>2025-03-17T13:38:42Z</time>
      </trkpt>
      <trkpt lat="43.43565" lon="6.15156">
        <ele>176.6</ele>
        <time>2025-03-17T13:38:52Z</time>
      </trkpt>
      <trkpt lat="43.43567" lon="6.15143">
        <ele>177</ele>
        <time>2025-03-17T13:39:02Z</time>
      </trkpt>
      <trkpt lat="43.43561" lon="6.15133">
        <ele>177.5</ele>
        <time>2025-03-17T13:39:12Z</time>
      </trkpt>
      <trkpt lat="43.43555" lon="6.15123">
        <ele>177.3</ele>
        <time>2025-03-17T13:39:22Z</time>
      </trkpt>
      <trkpt lat="43.43548" lon="6.15115">
        <ele>177.3</ele>
        <time>2025-03-17T13:39:32Z</time>
      </trkpt>
      <trkpt lat="43.4354" lon="6.15108">
        <ele>177.1</ele>
        <time>2025-03-17T13:39:50Z</time>
      </trkpt>
      <trkpt lat="43.4353" lon="6.1511">
        <ele>176.7</ele>
        <time>2025-03-17T13:40:00Z</time>
      </trkpt>
      <trkpt lat="43.43522" lon="6.15113">
        <ele>176.4</ele>
        <time>2025-03-17T13:40:09Z</time>
      </trkpt>
      <trkpt lat="43.43514" lon="6.1512">
        <ele>176.6</ele>
        <time>2025-03-17T13:40:35Z</time>
      </trkpt>
      <trkpt lat="43.43524" lon="6.15117">
        <ele>176.8</ele>
        <time>2025-03-17T13:40:58Z</time>
      </trkpt>
      <trkpt lat="43.43533" lon="6.15112">
        <ele>176.4</ele>
        <time>2025-03-17T13:41:07Z</time>
      </trkpt>
      <trkpt lat="43.43542" lon="6.15116">
        <ele>176.6</ele>
        <time>2025-03-17T13:41:17Z</time>
      </trkpt>
      <trkpt lat="43.4355" lon="6.15123">
        <ele>177.4</ele>
        <time>2025-03-17T13:41:27Z</time>
      </trkpt>
      <trkpt lat="43.43558" lon="6.1513">
        <ele>177.8</ele>
        <time>2025-03-17T13:41:36Z</time>
      </trkpt>
      <trkpt lat="43.43566" lon="6.15136">
        <ele>178.3</ele>
        <time>2025-03-17T13:41:45Z</time>
      </trkpt>
      <trkpt lat="43.43575" lon="6.15143">
        <ele>178.7</ele>
        <time>2025-03-17T13:41:55Z</time>
      </trkpt>
      <trkpt lat="43.43583" lon="6.15149">
        <ele>178.7</ele>
        <time>2025-03-17T13:42:05Z</time>
      </trkpt>
      <trkpt lat="43.43586" lon="6.15161">
        <ele>177.5</ele>
        <time>2025-03-17T13:43:08Z</time>
      </trkpt>
      <trkpt lat="43.43585" lon="6.15158">
        <ele>179</ele>
        <time>2025-03-17T13:52:18Z</time>
      </trkpt>
    </trkseg>
  </trk>
</gpx>